Latest Weather Observations for Shay Gap

IDW60801

Issued at 12:35 am WST Friday 31 October 2014 (issued every 30 minutes, with the page automatically refreshed every 10 minutes)

About weather observations | Map of weather stations | Latest weather observations for WA | Other Formats
Station Details ID: 504045 Name: SHAY GAP Lat: -20.43 Lon: 120.13 Height: 173.83 m
Data from the previous 72 hours. | See also: Recent months for locations in Western Australia
Date/Time
WST
Temp
°C
App
Temp
°C
Dew
Point
Rel
Hum
%
Delta-T
°C
Wind Press
QNH
hPa
Press
MSL
hPa
Rain
since 9 am
mm
Dir
 
Spd
km/h
Gust
km/h
Spd
kts
Gust
kts
31/12:30am - - - - - W 17 20 9 11 1007.7 1006.5 0.0
31/12:00am - - - - - W 17 22 9 12 1008.0 1006.8 0.0
 
Date/Time
WST
Temp
°C
App
Temp
°C
Dew
Point
Rel
Hum
%
Delta-T
°C
Wind Press
QNH
hPa
Press
MSL
hPa
Rain
since 9 am
mm
Dir
 
Spd
km/h
Gust
km/h
Spd
kts
Gust
kts
30/11:30pm - - - - - W 17 20 9 11 1008.4 1007.2 0.0
30/11:00pm - - - - - W 20 26 11 14 1008.7 1007.5 0.0
30/10:30pm - - - - - W 22 28 12 15 1009.0 1007.8 0.0
30/10:00pm - - - - - W 22 32 12 17 1009.2 1008.0 0.0
30/09:30pm - - - - - W 20 30 11 16 1009.2 1008.0 0.0
30/09:00pm - - - - - W 26 33 14 18 1008.9 1007.7 0.0
30/08:30pm - - - - - W 22 32 12 17 1008.8 1007.6 0.0
30/08:00pm - - - - - W 22 32 12 17 1008.6 1007.4 0.0
30/07:30pm - - - - - WNW 22 32 12 17 1008.3 1007.1 0.0
30/07:00pm - - - - - WNW 22 28 12 15 1007.9 1006.7 0.0
30/06:30pm - - - - - NW 24 30 13 16 1007.4 1006.2 0.0
30/06:00pm - - - - - NW 22 28 12 15 1007.1 1005.9 0.0
30/05:30pm - - - - - NW 26 35 14 19 1006.7 1005.5 0.0
30/05:00pm - - - - - WSW 15 20 8 11 1006.4 1005.2 0.0
30/04:30pm - - - - - SW 15 22 8 12 1006.3 1005.1 0.0
30/04:00pm - - - - - SW 20 24 11 13 1006.3 1005.1 0.0
30/03:30pm - - - - - SSW 17 30 9 16 1006.4 1005.2 0.0
30/03:00pm - - - - - W 17 22 9 12 1006.5 1005.3 0.0
30/02:30pm - - - - - W 24 30 13 16 1006.8 1005.6 0.0
30/02:00pm - - - - - SW 17 33 9 18 1007.0 1005.8 0.0
30/01:30pm - - - - - S 17 26 9 14 1007.4 1006.2 0.0
30/01:00pm - - - - - SSW 20 33 11 18 1007.8 1006.6 0.0
30/12:30pm - - - - - W 19 26 10 14 1008.3 1007.1 0.0
30/12:00pm - - - - - S 20 30 11 16 1008.6 1007.4 0.0
30/11:30am - - - - - SSW 15 30 8 16 1009.1 1007.9 0.0
30/11:10am -41.1 -48.9 -58.0 15 0.1 SW 20 33 11 18 1009.4 1008.2 0.0
30/11:07am -49.9 - -31.4 - - SSW 24 33 13 18 1009.5 1008.3 0.0
30/11:05am -11.1 -19.5 -33.2 14 2.2 SSW 24 33 13 18 1009.4 1008.2 0.0
30/11:02am -21.2 -29.3 -41.5 14 1.0 SSW 22 33 12 18 1009.5 1008.3 0.0
30/11:00am -7.8 -15.4 -30.6 14 2.8 SSW 20 33 11 18 1009.5 1008.3 0.0
30/10:58am -13.5 -21.2 -35.2 14 1.9 SW 20 32 11 17 1009.6 1008.4 0.0
30/10:57am -42.8 -50.4 -59.4 15 0.1 SW 19 32 10 17 1009.6 1008.4 0.0
30/10:55am -19.6 -26.8 -40.2 14 1.1 SW 17 26 9 14 1009.7 1008.5 0.0
30/10:54am -10.6 -18.1 -32.8 14 2.3 WSW 19 26 10 14 1009.7 1008.5 0.0
30/10:53am -42.1 -49.9 -58.8 15 0.1 SSW 20 30 11 16 1009.7 1008.5 0.0
30/10:52am -34.8 -42.6 -52.7 15 0.3 SSW 20 33 11 18 1009.7 1008.5 0.0
30/10:51am -12.5 -20.6 -34.4 14 2.0 SSW 22 35 12 19 1009.7 1008.5 0.0
30/10:48am -34.2 -42.4 -52.2 15 0.3 SSW 22 35 12 19 1009.8 1008.6 0.0
30/10:47am -22.9 -31.4 -43.6 13 0.9 SSW 24 35 13 19 1009.8 1008.6 0.0
30/10:46am -41.8 -50.4 -58.6 15 0.1 SSW 24 35 13 19 1009.8 1008.6 0.0
30/10:43am -18.5 -26.6 -40.0 13 1.3 S 22 35 12 19 1009.8 1008.6 0.0
30/10:42am -40.8 -48.6 -57.7 15 0.1 S 20 35 11 19 1009.7 1008.5 0.0
30/10:41am -13.1 -20.8 -34.9 14 1.9 S 20 32 11 17 1009.9 1008.7 0.0
30/10:40am -29.5 -37.3 -48.3 15 0.5 SSW 20 32 11 17 1009.9 1008.7 0.0
30/10:39am -47.2 -55.0 -50.5 69 0.0 SSW 20 32 11 17 1009.8 1008.6 0.0
30/10:38am -32.1 -39.9 -50.5 15 0.3 SSW 20 32 11 17 1009.9 1008.7 0.0
30/10:37am -14.2 -21.9 -35.8 14 1.8 SSW 20 32 11 17 1009.8 1008.6 0.0
30/10:36am -28.8 -36.4 -47.8 14 0.5 SSW 19 28 10 15 1009.9 1008.7 0.0
30/10:32am -20.8 -29.3 -40.5 15 1.0 SSW 24 35 13 19 1010.0 1008.8 0.0
30/10:31am -29.2 -37.7 -47.5 15 0.5 SSW 24 35 13 19 1010.1 1009.0 0.0
30/10:30am -23.8 -32.3 -43.0 15 0.8 S 24 35 13 19 1010.1 1009.0 0.0
30/10:28am -8.8 -17.2 -30.7 15 2.6 S 24 35 13 19 1010.1 1009.0 0.0
30/10:27am -38.9 -47.1 -55.6 16 0.2 S 22 35 12 19 1010.1 1009.0 0.0
30/10:26am -4.8 -12.8 -27.4 15 3.4 S 22 35 12 19 1010.1 1009.0 0.0
30/10:25am -27.7 -35.8 -46.2 16 0.5 S 22 35 12 19 1010.1 1009.0 0.0
30/10:24am -4.5 -12.1 -27.9 14 3.5 S 20 35 11 19 1010.0 1008.8 0.0
30/10:23am -14.2 -21.9 -35.1 15 1.7 S 20 35 11 19 1010.1 1009.0 0.0
30/10:21am -29.0 -36.6 -46.7 17 0.5 S 19 28 10 15 1010.2 1009.1 0.0
30/10:18am -34.5 -42.3 -50.8 18 0.3 S 20 33 11 18 1010.3 1009.2 0.0
30/10:17am -10.2 -18.2 -31.1 16 2.3 S 22 33 12 18 1010.2 1009.1 0.0
30/10:16am -39.8 -48.0 -55.3 18 0.1 S 22 33 12 18 1010.3 1009.2 0.0
30/10:15am -24.9 -33.0 -42.8 17 0.7 S 22 33 12 18 1010.3 1009.2 0.0
30/10:14am -5.4 -13.7 -26.5 17 3.2 S 24 33 13 18 1010.3 1009.2 0.0
30/10:10am -29.3 -37.8 -46.5 17 0.4 S 24 33 13 18 1010.3 1009.2 0.0
30/10:09am -12.3 -20.7 -32.2 17 2.0 S 24 32 13 17 1010.3 1009.2 0.0
30/10:08am -6.3 -14.3 -27.3 17 3.0 S 22 32 12 17 1010.3 1009.2 0.0
30/10:07am -24.0 -32.5 -42.0 17 0.7 S 24 32 13 17 1010.4 1009.3 0.0
30/10:06am -12.9 -21.3 -32.7 17 1.9 S 24 32 13 17 1010.3 1009.2 0.0
30/10:04am -7.2 -15.2 -27.4 18 2.8 S 22 32 12 17 1010.4 1009.3 0.0
30/10:03am -29.5 -37.6 -46.1 19 0.4 S 22 32 12 17 1010.4 1009.3 0.0
30/10:02am -22.8 -30.9 -40.0 19 0.8 S 22 32 12 17 1010.4 1009.3 0.0
30/10:01am -17.8 -25.9 -35.7 19 1.2 S 22 32 12 17 1010.5 1009.4 0.0
30/10:00am -28.5 -36.6 -45.3 18 0.5 S 22 32 12 17 1010.4 1009.3 0.0
30/09:59am -10.3 -18.3 -30.0 18 2.2 S 22 32 12 17 1010.5 1009.4 0.0
30/09:58am -26.0 -34.1 -43.2 18 0.6 S 22 32 12 17 1010.4 1009.3 0.0
30/09:57am -15.6 -23.7 -34.4 18 1.5 S 22 32 12 17 1010.4 1009.3 0.0
30/09:54am -10.2 -17.8 -28.8 20 2.2 S 20 32 11 17 1010.6 1009.5 0.0
30/09:53am -30.0 -38.1 -45.6 21 0.4 S 22 32 12 17 1010.6 1009.5 0.0
30/09:52am -19.3 -27.4 -36.5 20 1.1 S 22 32 12 17 1010.6 1009.5 0.0
30/09:51am -10.0 -18.0 -28.6 20 2.2 S 22 32 12 17 1010.5 1009.4 0.0
30/09:49am -22.6 -31.1 -39.3 20 0.8 S 24 32 13 17 1010.6 1009.5 0.0
30/09:48am -13.9 -22.3 -32.4 19 1.7 S 24 32 13 17 1010.6 1009.5 0.0
30/09:47am -22.1 -30.6 -39.4 19 0.8 S 24 32 13 17 1010.6 1009.5 0.0
30/09:46am -45.9 -54.5 -58.9 22 0.1 S 24 33 13 18 1010.8 1009.6 0.0
30/09:44am -30.6 -39.5 -46.1 21 0.4 S 26 33 14 18 1010.6 1009.5 0.0
30/09:43am -3.7 -12.3 -23.3 20 3.4 S 26 35 14 19 1010.8 1009.6 0.0
30/09:42am -22.5 -31.7 -38.7 21 0.8 S 28 35 15 19 1010.8 1009.6 0.0
30/09:41am -10.7 -19.8 -29.2 20 2.1 S 28 35 15 19 1010.8 1009.6 0.0
30/09:40am 2.1 -6.7 -17.9 21 4.8 S 28 35 15 19 1010.8 1009.6 0.0
30/09:37am -7.5 -16.6 -26.5 20 2.7 S 28 35 15 19 1010.8 1009.6 0.0
30/09:35am -15.0 -24.2 -32.8 20 1.5 S 28 35 15 19 1010.8 1009.6 0.0
30/09:34am -28.1 -37.4 -44.0 20 0.5 S 28 35 15 19 1010.8 1009.6 0.0
30/09:33am -40.5 -49.4 -54.2 22 0.1 S 26 35 14 19 1010.8 1009.6 0.0
30/09:32am -10.2 -19.0 -28.8 20 2.2 S 26 35 14 19 1010.9 1009.7 0.0
30/09:31am -24.7 -33.6 -40.6 21 0.6 S 26 35 14 19 1010.8 1009.6 0.0
30/09:30am -16.6 -25.8 -33.7 21 1.3 S 28 35 15 19 1010.9 1009.7 0.0
30/09:29am -21.6 -30.8 -38.0 21 0.9 S 28 37 15 20 1010.9 1009.7 0.0
30/09:26am -8.5 -17.6 -26.8 21 2.4 S 28 37 15 20 1010.9 1009.7 0.0
30/09:25am -2.7 -11.7 -21.9 21 3.6 S 28 37 15 20 1010.9 1009.7 0.0
30/09:24am -13.6 -22.8 -30.7 22 1.6 S 28 37 15 20 1010.9 1009.7 0.0
30/09:23am -5.2 -13.8 -23.5 22 3.0 S 26 37 14 20 1010.9 1009.7 0.0
30/09:22am -20.9 -29.8 -36.9 22 0.9 S 26 37 14 20 1010.9 1009.7 0.0
30/09:21am -34.2 -43.1 -48.4 23 0.2 S 26 37 14 20 1010.9 1009.7 0.0
30/09:20am -41.8 -50.7 -55.0 23 0.1 S 26 37 14 20 1010.9 1009.7 0.0
30/09:19am -28.6 -37.1 -43.1 24 0.4 S 24 33 13 18 1010.8 1009.6 0.0
30/09:17am -10.3 -18.6 -26.9 24 2.1 S 24 33 13 18 1010.9 1009.7 0.0
30/09:14am -23.8 -32.7 -38.2 25 0.6 S 26 33 14 18 1011.0 1009.8 0.0
30/09:13am -37.3 -46.2 -49.6 27 0.2 S 26 33 14 18 1011.0 1009.8 0.0
30/09:12am -31.5 -40.4 -44.5 27 0.3 S 26 33 14 18 1011.0 1009.8 0.0
30/09:10am -26.4 -35.3 -39.7 28 0.5 S 26 33 14 18 1011.0 1009.8 0.0
30/09:09am -37.5 -46.4 -49.5 28 0.1 S 26 33 14 18 1011.1 1009.9 0.0
30/09:07am -24.4 -33.6 -38.3 26 0.6 S 28 33 15 18 1011.0 1009.8 0.0
30/09:05am -35.8 -45.1 -48.3 27 0.2 S 28 33 15 18 1011.0 1009.8 0.0
30/09:04am -46.2 -55.5 -57.5 27 0.1 S 28 33 15 18 1011.1 1009.9 0.0
30/09:02am -36.1 -45.4 -48.6 27 0.2 S 28 33 15 18 1011.1 1009.9 0.0
30/09:01am -26.6 -35.9 -40.2 27 0.5 S 28 33 15 18 1011.0 1009.8 0.0
30/09:00am -12.2 -21.3 -27.7 26 1.7 S 28 33 15 18 1011.0 1009.8 -
30/08:59am -17.7 -26.9 -32.5 26 1.1 S 28 33 15 18 1011.0 1009.8 -
30/08:58am -31.7 -41.0 -44.7 27 0.3 S 28 33 15 18 1011.1 1009.9 -
30/08:57am -12.0 -21.1 -28.0 25 1.8 S 28 33 15 18 1011.0 1009.8 -
30/08:56am -5.9 -14.9 -22.3 26 2.7 S 28 33 15 18 1011.0 1009.8 -
30/08:53am -13.6 -22.4 -28.9 26 1.5 S 26 33 14 18 1011.1 1009.9 -
30/08:52am -27.5 -36.4 -40.7 27 0.4 S 26 33 14 18 1011.1 1009.9 -
30/08:51am -6.7 -15.3 -22.9 26 2.6 S 26 33 14 18 1011.1 1009.9 -
30/08:50am -25.5 -34.4 -39.3 26 0.5 S 26 33 14 18 1011.1 1009.9 -
30/08:49am 4.6 -3.6 -13.2 26 5.1 S 26 33 14 18 1011.1 1009.9 -
30/08:41am -15.6 -24.0 -30.3 27 1.3 S 24 30 13 16 1011.2 1010.0 -
30/08:39am -22.4 -30.5 -36.6 26 0.7 S 22 30 12 16 1011.1 1009.9 -
30/08:38am -31.2 -39.3 -44.3 27 0.3 S 22 30 12 16 1011.1 1009.9 -
30/08:36am -15.5 -23.5 -30.2 27 1.3 S 22 30 12 16 1011.2 1010.0 -
30/08:35am -44.2 -52.7 -55.4 28 0.1 S 24 30 13 16 1011.1 1009.9 -
30/08:34am -18.4 -26.8 -32.7 27 1.0 S 24 30 13 16 1011.2 1010.0 -
30/08:33am -31.7 -40.2 -44.0 29 0.3 S 24 30 13 16 1011.1 1009.9 -
30/08:31am -17.3 -25.3 -31.4 28 1.1 S 22 30 12 16 1011.2 1010.0 -
30/08:30am -40.0 -48.5 -51.4 29 0.1 S 24 30 13 16 1011.2 1010.0 -
30/08:27am -31.7 -40.2 -44.7 27 0.3 S 24 30 13 16 1011.1 1009.9 -
30/08:25am -23.3 -31.4 -36.6 29 0.6 SSW 22 30 12 16 1011.2 1010.0 -
30/08:23am -31.0 -39.5 -43.4 29 0.3 SSW 24 28 13 15 1011.1 1009.9 -
30/08:22am -15.5 -23.9 -29.4 29 1.3 SSW 24 28 13 15 1011.2 1010.0 -
30/08:21am -28.1 -36.6 -40.9 28 0.4 SSW 24 28 13 15 1011.2 1010.0 -
30/08:20am -43.6 -52.1 -54.6 29 0.1 SSW 24 28 13 15 1011.2 1010.0 -
30/08:19am -36.2 -44.7 -48.0 29 0.2 S 24 28 13 15 1011.2 1010.0 -
30/08:18am -25.5 -34.0 -38.9 28 0.5 S 24 28 13 15 1011.2 1010.0 -
30/08:17am -14.4 -22.8 -28.5 29 1.4 SSW 24 28 13 15 1011.2 1010.0 -
30/08:16am -32.7 -41.2 -44.6 30 0.2 SSW 24 28 13 15 1011.2 1010.0 -
30/08:15am -24.8 -33.3 -37.6 29 0.5 SSW 24 28 13 15 1011.2 1010.0 -
30/08:14am -11.8 -20.1 -26.2 29 1.7 SSW 24 28 13 15 1011.2 1010.0 -
30/08:13am -32.6 -41.1 -44.8 29 0.2 SSW 24 28 13 15 1011.2 1010.0 -
30/08:11am -18.8 -26.8 -32.0 30 0.9 S 22 28 12 15 1011.2 1010.0 -
30/08:10am -42.5 -50.7 -53.0 31 0.1 SSW 22 28 12 15 1011.2 1010.0 -
30/08:09am -11.3 -19.2 -25.4 30 1.7 SSW 22 28 12 15 1011.2 1010.0 -
30/08:08am -25.3 -33.8 -38.4 28 0.5 S 24 32 13 17 1011.2 1010.0 -
30/08:06am -48.3 -56.9 -58.8 29 0.0 S 24 32 13 17 1011.2 1010.0 -
30/08:04am -41.4 -49.9 -52.3 30 0.1 S 24 32 13 17 1011.2 1010.0 -
30/08:03am -10.9 -19.2 -25.0 30 1.8 S 24 32 13 17 1011.2 1010.0 -
30/08:02am -27.0 -35.5 -38.9 32 0.4 SSW 24 32 13 17 1011.2 1010.0 -
30/08:01am -38.6 -47.1 -49.6 31 0.1 SSW 24 32 13 17 1011.2 1010.0 -
30/08:00am -45.3 -53.8 -55.3 32 0.1 SSW 24 32 13 17 1011.2 1010.0 -
30/07:58am -33.6 -41.7 -45.4 30 0.2 SSW 22 32 12 17 1011.1 1009.9 -
30/07:57am -42.5 -50.7 -53.3 30 0.1 SSW 22 30 12 16 1011.2 1010.0 -
30/07:56am -48.5 -56.7 -58.4 31 0.0 SSW 22 30 12 16 1011.2 1010.0 -
30/07:55am -21.1 -29.2 -34.0 30 0.8 SSW 22 30 12 16 1011.2 1010.0 -
30/07:54am -39.4 -47.2 -50.3 31 0.1 SSW 20 30 11 16 1011.1 1009.9 -
30/07:53am -12.3 -19.9 -26.3 30 1.6 SSW 20 28 11 15 1011.2 1010.0 -
30/07:52am -31.7 -39.5 -43.1 32 0.3 SSW 20 28 11 15 1011.2 1010.0 -
30/07:50am -19.5 -27.2 -32.3 31 0.9 SSW 20 28 11 15 1011.1 1009.9 -
30/07:49am 0.4 -6.7 -14.3 32 3.7 SSW 20 28 11 15 1011.1 1009.9 -
30/07:48am -16.9 -24.3 -30.0 31 1.1 SSW 19 28 10 15 1011.1 1009.9 -
30/07:47am -31.1 -38.7 -42.6 31 0.3 SSW 19 28 10 15 1011.1 1009.9 -
30/07:46am -21.0 -28.5 -33.6 31 0.7 SSW 19 28 10 15 1011.1 1009.9 -
30/07:45am -32.1 -39.7 -42.9 34 0.2 SSW 19 28 10 15 1011.1 1009.9 -
30/07:43am -23.1 -30.6 -35.1 33 0.6 SSW 19 28 10 15 1011.1 1009.9 -
30/07:42am -47.1 -54.3 -56.4 34 0.0 SW 17 24 9 13 1011.1 1009.9 -
30/07:40am -36.0 -43.2 -46.1 35 0.1 SW 17 22 9 12 1011.1 1009.9 -
30/07:39am -46.1 -53.3 -55.3 35 0.0 SW 17 22 9 12 1011.1 1009.9 -
30/07:38am -40.3 -47.5 -50.0 35 0.1 SW 17 24 9 13 1011.1 1009.9 -
30/07:37am -33.6 -40.8 -43.4 37 0.2 SW 17 24 9 13 1011.1 1009.9 -
30/07:36am -26.7 -33.8 -37.2 36 0.4 SW 17 24 9 13 1011.1 1009.9 -
30/07:34am -38.0 -45.2 -47.2 38 0.1 SW 17 24 9 13 1011.0 1009.8 -
30/07:33am -31.2 -38.4 -40.5 40 0.2 SW 17 24 9 13 1011.1 1009.9 -
30/07:31am -47.3 -54.5 -55.2 40 0.0 SW 17 24 9 13 1011.1 1009.9 -
30/07:30am -37.7 -44.9 -46.9 38 0.1 SW 17 24 9 13 1011.1 1009.9 -
30/07:00am - - - - - SW 11 15 6 8 1011.1 1009.9 -
30/06:55am -42.9 -49.0 -47.6 60 0.0 SW 11 15 6 8 1011.1 1009.9 -
30/06:54am -27.4 -33.4 -32.8 60 0.1 SW 11 15 6 8 1011.0 1009.8 -
30/06:47am -45.8 -51.9 -49.7 65 0.0 WSW 11 15 6 8 1011.0 1009.8 -
30/06:45am -35.9 -41.9 -40.1 65 0.0 WSW 11 15 6 8 1011.0 1009.8 -
30/06:43am -28.3 -34.3 -32.6 67 0.1 WSW 11 15 6 8 1010.9 1009.7 -
30/06:41am -23.0 -29.3 -27.6 66 0.2 WSW 13 15 7 8 1011.0 1009.8 -
30/06:40am -30.5 -36.9 -34.7 67 0.1 WSW 13 17 7 9 1011.0 1009.8 -
30/06:39am -25.1 -31.4 -29.4 67 0.1 WSW 13 17 7 9 1011.0 1009.8 -
30/06:38am -16.9 -23.0 -21.5 67 0.3 WSW 13 17 7 9 1011.0 1009.8 -
30/06:37am -42.2 -48.6 -45.9 67 0.0 WSW 13 17 7 9 1011.0 1009.8 -
30/06:36am -26.9 -33.6 -31.1 68 0.1 WSW 15 17 8 9 1011.0 1009.8 -
30/06:35am -37.2 -44.0 -40.9 68 0.0 WSW 15 17 8 9 1011.0 1009.8 -
30/06:33am -29.6 -36.3 -33.6 68 0.0 WSW 15 17 8 9 1010.9 1009.7 -
30/06:32am -47.9 -54.7 -51.2 69 0.0 WSW 15 17 8 9 1010.9 1009.7 -
30/06:31am -41.2 -48.0 -44.8 68 0.0 WSW 15 17 8 9 1010.9 1009.7 -
30/06:30am -34.5 -41.3 -38.2 69 0.0 WSW 15 17 8 9 1010.9 1009.7 -
30/06:29am -31.8 -38.6 -35.6 69 0.0 WSW 15 17 8 9 1010.9 1009.7 -
30/06:23am -47.7 -54.5 -50.8 70 0.0 WSW 15 17 8 9 1010.8 1009.6 -
30/06:21am -41.5 -48.3 -44.8 70 0.0 WSW 15 17 8 9 1010.8 1009.6 -
30/06:20am -36.2 -43.0 -39.5 72 0.0 WSW 15 17 8 9 1010.8 1009.6 -
30/06:19am -43.2 -50.0 -46.3 72 0.0 WSW 15 17 8 9 1010.8 1009.6 -
30/06:18am -33.5 -40.3 -36.8 72 0.0 WSW 15 17 8 9 1010.8 1009.6 -
30/06:16am -49.3 -56.1 -52.1 73 0.0 WSW 15 17 8 9 1010.8 1009.6 -
30/06:15am -43.1 -49.9 -46.0 73 0.0 WSW 15 17 8 9 1010.8 1009.6 -
30/06:13am -34.8 -41.6 -37.9 73 0.0 WSW 15 17 8 9 1010.8 1009.6 -
30/06:11am -46.8 -53.6 -49.4 75 0.0 WSW 15 17 8 9 1010.6 1009.5 -
30/06:10am -22.8 -29.4 -26.1 74 0.1 WSW 15 17 8 9 1010.6 1009.5 -
30/06:08am -46.2 -52.6 -48.7 76 0.0 WSW 13 15 7 8 1010.6 1009.5 -
30/06:06am -40.2 -46.6 -42.9 75 0.0 WSW 13 15 7 8 1010.6 1009.5 -
30/06:04am -43.6 -50.0 -46.2 75 0.0 WSW 13 15 7 8 1010.6 1009.5 -
30/06:03am -28.1 -34.4 -31.1 75 0.0 WSW 13 15 7 8 1010.6 1009.5 -
30/06:02am -46.6 -53.0 -49.0 77 0.0 WSW 13 15 7 8 1010.6 1009.5 -
30/06:01am -37.8 -44.2 -40.4 77 0.0 WSW 13 15 7 8 1010.6 1009.5 -
30/06:00am -43.2 -49.6 -45.7 76 0.0 WSW 13 15 7 8 1010.6 1009.5 -
30/05:59am -43.2 -49.6 -45.7 76 0.0 WSW 13 15 7 8 1010.6 1009.5 -
30/05:58am -24.7 -31.0 -27.7 76 0.0 WSW 13 15 7 8 1010.6 1009.5 -
30/05:57am -42.0 -48.4 -44.5 77 0.0 WSW 13 15 7 8 1010.6 1009.5 -
30/05:56am -47.8 -54.2 -50.2 76 0.0 WSW 13 15 7 8 1010.5 1009.4 -
30/05:55am -30.3 -36.6 -33.0 77 0.0 WSW 13 15 7 8 1010.5 1009.4 -
30/05:49am -48.1 -54.5 -50.4 77 0.0 WSW 13 17 7 9 1010.5 1009.4 -
30/05:48am -27.5 -33.8 -30.3 77 0.0 WSW 13 17 7 9 1010.5 1009.4 -
30/05:47am -45.1 -51.5 -47.3 79 0.0 WSW 13 17 7 9 1010.4 1009.3 -
30/05:45am -17.0 -23.1 -19.9 78 0.1 WSW 13 17 7 9 1010.4 1009.3 -
30/05:44am -26.7 -33.0 -29.4 78 0.0 WSW 13 17 7 9 1010.4 1009.3 -
30/05:43am -46.3 -52.7 -48.5 78 0.0 WSW 13 17 7 9 1010.4 1009.3 -
30/05:42am -13.6 -19.5 -16.6 78 0.2 WSW 13 17 7 9 1010.4 1009.3 -
30/05:40am -32.7 -39.1 -35.2 78 0.0 WSW 13 17 7 9 1010.3 1009.2 -
30/05:32am -41.0 -47.4 -43.2 79 0.0 WSW 13 17 7 9 1010.2 1009.1 -
30/05:31am -7.1 -12.6 -10.1 79 0.5 WSW 13 17 7 9 1010.2 1009.1 -
30/05:30am -43.9 -50.3 -46.0 80 0.0 WSW 13 17 7 9 1010.2 1009.1 -
30/05:29am -43.9 -50.3 -46.0 80 0.0 WSW 13 17 7 9 1010.2 1009.1 -
30/05:26am -30.0 -36.3 -32.3 80 0.0 WSW 13 17 7 9 1010.2 1009.1 -
30/05:25am -19.2 -25.3 -21.8 80 0.1 WSW 13 17 7 9 1010.2 1009.1 -
30/05:23am -45.1 -51.9 -47.1 80 0.0 WSW 15 19 8 10 1010.2 1009.1 -
30/05:22am -35.5 -42.3 -37.7 80 0.0 WSW 15 19 8 10 1010.1 1009.0 -
30/05:21am -27.5 -34.2 -29.9 80 0.0 WSW 15 19 8 10 1010.1 1009.0 -
30/05:20am -49.8 -56.6 -51.7 80 0.0 WSW 15 19 8 10 1010.1 1009.0 -
30/05:19am -44.3 -51.1 -46.3 80 0.0 WSW 15 19 8 10 1010.1 1009.0 -
30/05:16am -30.2 -36.9 -32.5 80 0.0 WSW 15 19 8 10 1010.0 1008.8 -
30/05:15am -20.3 -26.8 -22.8 80 0.0 WSW 15 19 8 10 1010.0 1008.8 -
30/05:14am -33.5 -40.3 -35.7 81 0.0 WSW 15 19 8 10 1010.0 1008.8 -
30/05:13am -44.6 -51.4 -46.6 80 0.0 WSW 15 19 8 10 1010.0 1008.8 -
30/05:12am -26.3 -33.3 -28.7 80 0.0 WSW 17 19 9 10 1010.0 1008.8 -
30/05:11am -20.9 -27.8 -23.4 80 0.0 WSW 17 19 9 10 1010.0 1008.8 -
30/05:10am -43.2 -50.4 -45.2 81 0.0 WSW 17 19 9 10 1010.0 1008.8 -
30/05:08am -37.7 -44.9 -39.8 81 0.0 WSW 17 20 9 11 1010.0 1008.8 -
30/05:07am -22.4 -29.4 -24.9 80 0.0 WSW 17 20 9 11 1010.0 1008.8 -
30/05:06am -46.2 -53.4 -48.2 80 0.0 WSW 17 20 9 11 1010.0 1008.8 -
30/05:05am -16.5 -23.3 -19.1 80 0.1 WSW 17 20 9 11 1010.0 1008.8 -
30/05:04am -24.4 -31.4 -26.8 80 0.0 WSW 17 20 9 11 1010.0 1008.8 -
30/05:01am -32.1 -39.2 -34.2 82 0.0 WSW 17 20 9 11 1010.0 1008.8 -
30/05:00am -37.3 -44.5 -39.3 82 0.0 WSW 17 20 9 11 1010.0 1008.8 -
30/04:59am -22.4 -29.4 -24.7 81 0.0 WSW 17 20 9 11 1010.0 1008.8 -
30/04:56am -45.2 -52.4 -47.1 81 0.0 WSW 17 20 9 11 1009.9 1008.7 -
30/04:55am -34.2 -41.3 -36.3 81 0.0 WSW 17 20 9 11 1009.9 1008.7 -
30/04:53am -27.5 -34.6 -29.7 81 0.0 WSW 17 20 9 11 1009.9 1008.7 -
30/04:50am -37.6 -44.8 -39.6 82 0.0 WSW 17 20 9 11 1009.9 1008.7 -
30/04:49am -44.6 -51.8 -46.5 81 0.0 WSW 17 20 9 11 1009.9 1008.7 -
30/04:47am -33.8 -41.3 -35.9 81 0.0 WSW 19 24 10 13 1009.9 1008.7 -
30/04:46am -18.5 -25.7 -20.9 81 0.0 WSW 19 24 10 13 1009.9 1008.7 -
30/04:44am -49.7 -57.3 -51.5 81 0.0 WSW 19 24 10 13 1009.9 1008.7 -
30/04:43am -28.4 -35.9 -30.6 81 0.0 WSW 19 24 10 13 1009.9 1008.7 -
30/04:42am -44.9 -52.5 -46.8 81 0.0 WSW 19 24 10 13 1009.8 1008.6 -
30/04:41am -20.4 -27.7 -22.8 81 0.0 W 19 24 10 13 1009.8 1008.6 -
30/04:40am -46.6 -54.2 -48.5 81 0.0 W 19 24 10 13 1009.8 1008.6 -
30/04:39am -15.3 -22.6 -17.8 81 0.1 W 20 24 11 13 1009.8 1008.6 -
30/04:38am -41.4 -49.2 -43.4 81 0.0 W 20 24 11 13 1009.8 1008.6 -
30/04:37am -33.0 -40.7 -35.1 81 0.0 W 20 24 11 13 1009.8 1008.6 -
30/04:36am -43.8 -51.6 -45.7 81 0.0 W 20 24 11 13 1009.8 1008.6 -
30/04:35am -49.4 -57.2 -51.2 81 0.0 W 20 24 11 13 1009.8 1008.6 -
30/04:34am -31.6 -39.1 -33.8 81 0.0 W 19 24 10 13 1009.8 1008.6 -
30/04:33am -22.3 -29.6 -24.7 81 0.0 W 19 24 10 13 1009.8 1008.6 -
30/04:31am -29.2 -36.7 -31.4 81 0.0 W 19 24 10 13 1009.8 1008.6 -
30/04:30am -21.7 -29.0 -24.1 81 0.0 W 19 24 10 13 1009.8 1008.6 -
30/04:29am -27.6 -35.0 -29.8 81 0.0 W 19 24 10 13 1009.8 1008.6 -
30/04:28am -19.4 -26.3 -21.8 81 0.0 W 17 24 9 13 1009.8 1008.6 -
30/04:27am -44.1 -51.3 -46.0 81 0.0 W 17 24 9 13 1009.8 1008.6 -
30/04:26am -29.3 -36.4 -31.5 81 0.0 W 17 24 9 13 1009.8 1008.6 -
30/04:25am -37.2 -44.4 -39.2 82 0.0 W 17 24 9 13 1009.9 1008.7 -
30/04:23am -42.2 -49.4 -44.1 82 0.0 W 17 22 9 12 1009.9 1008.7 -
30/04:21am -49.0 -56.2 -50.8 81 0.0 W 17 22 9 12 1009.8 1008.6 -
30/04:20am -23.7 -30.7 -26.0 81 0.0 W 17 22 9 12 1009.9 1008.7 -
30/04:14am -49.7 -56.9 -51.4 82 0.0 W 17 24 9 13 1009.8 1008.6 -
30/04:13am -20.8 -28.1 -23.0 82 0.0 W 19 24 10 13 1009.8 1008.6 -
30/04:12am -46.1 -53.7 -48.0 81 0.0 W 19 24 10 13 1009.8 1008.6 -
30/04:11am -6.0 -12.6 -8.6 82 0.5 W 19 24 10 13 1009.8 1008.6 -
30/04:10am -49.3 -56.9 -51.0 82 0.0 W 19 24 10 13 1009.7 1008.5 -
30/04:09am -43.5 -51.1 -45.3 82 0.0 W 19 24 10 13 1009.7 1008.5 -
30/04:08am -30.7 -38.2 -32.9 81 0.0 W 19 24 10 13 1009.7 1008.5 -
30/04:07am -49.6 -57.2 -51.4 81 0.0 W 19 24 10 13 1009.7 1008.5 -
30/04:06am -26.6 -34.0 -28.9 81 0.0 W 19 24 10 13 1009.7 1008.5 -
30/04:05am -16.3 -23.5 -18.8 81 0.1 W 19 24 10 13 1009.7 1008.5 -
30/04:03am -38.2 -45.7 -40.2 81 0.0 W 19 24 10 13 1009.7 1008.5 -
30/04:01am -45.3 -52.9 -47.2 81 0.0 W 19 24 10 13 1009.7 1008.5 -
30/04:00am -40.3 -48.1 -42.3 81 0.0 W 20 24 11 13 1009.6 1008.4 -
30/03:59am -42.2 -50.0 -44.1 82 0.0 W 20 24 11 13 1009.6 1008.4 -
30/03:58am -34.5 -42.2 -36.6 81 0.0 W 20 24 11 13 1009.6 1008.4 -
30/03:57am -42.9 -50.7 -44.8 82 0.0 W 20 24 11 13 1009.6 1008.4 -
30/03:55am -30.8 -38.5 -33.0 81 0.0 W 20 24 11 13 1009.6 1008.4 -
30/03:54am -46.1 -53.9 -48.0 81 0.0 W 20 24 11 13 1009.6 1008.4 -
30/03:53am -11.2 -18.3 -13.8 81 0.2 W 20 24 11 13 1009.6 1008.4 -
30/03:52am -30.5 -38.2 -32.7 81 0.0 W 20 24 11 13 1009.6 1008.4 -
30/03:51am -16.4 -23.7 -18.9 81 0.1 W 20 24 11 13 1009.6 1008.4 -
30/03:50am -25.4 -33.0 -27.7 81 0.0 W 20 24 11 13 1009.6 1008.4 -
30/03:49am -19.3 -26.7 -21.7 81 0.0 W 20 24 11 13 1009.6 1008.4 -
30/03:48am -26.4 -34.0 -28.7 81 0.0 W 20 24 11 13 1009.6 1008.4 -
30/03:47am -48.0 -55.8 -49.8 82 0.0 W 20 24 11 13 1009.6 1008.4 -
30/03:45am -41.4 -49.2 -43.4 81 0.0 W 20 24 11 13 1009.5 1008.3 -
30/03:42am -34.0 -41.7 -36.2 80 0.0 W 20 24 11 13 1009.5 1008.3 -
30/03:39am -22.1 -29.6 -24.6 80 0.0 W 20 24 11 13 1009.5 1008.3 -
30/03:34am -47.9 -55.7 -49.8 81 0.0 W 20 24 11 13 1009.5 1008.3 -
30/03:32am -20.8 -28.3 -23.3 80 0.0 W 20 26 11 14 1009.5 1008.3 -
30/03:30am -37.3 -45.0 -39.6 79 0.0 W 20 26 11 14 1009.4 1008.2 -
30/03:29am -40.2 -48.0 -42.4 79 0.0 W 20 26 11 14 1009.4 1008.2 -
30/03:28am -17.4 -24.8 -20.1 79 0.1 W 20 26 11 14 1009.4 1008.2 -
30/03:27am -28.5 -36.1 -31.0 79 0.0 W 20 26 11 14 1009.4 1008.2 -
30/03:26am -44.9 -52.7 -47.0 79 0.0 W 20 26 11 14 1009.4 1008.2 -
30/03:25am -24.5 -32.1 -27.1 79 0.0 W 20 26 11 14 1009.4 1008.2 -
30/03:24am -39.1 -46.8 -41.3 80 0.0 W 20 26 11 14 1009.4 1008.2 -
30/03:23am -49.7 -57.5 -51.7 80 0.0 W 20 26 11 14 1009.4 1008.2 -
30/03:22am -28.6 -36.2 -31.1 79 0.0 WSW 20 26 11 14 1009.4 1008.2 -
30/03:21am -36.0 -43.7 -38.3 79 0.0 WSW 20 26 11 14 1009.4 1008.2 -
30/03:19am -48.0 -55.8 -50.0 80 0.0 WSW 20 26 11 14 1009.4 1008.2 -
30/03:18am -39.9 -47.6 -42.1 79 0.0 W 20 26 11 14 1009.4 1008.2 -
30/03:17am -17.8 -25.0 -20.5 79 0.1 W 19 26 10 14 1009.4 1008.2 -
30/03:16am -44.2 -51.8 -46.3 80 0.0 W 19 26 10 14 1009.4 1008.2 -
30/03:15am -36.0 -43.5 -38.3 79 0.0 W 19 26 10 14 1009.4 1008.2 -
30/03:14am -49.9 -57.5 -51.9 79 0.0 W 19 26 10 14 1009.4 1008.2 -
30/03:13am -25.2 -32.6 -27.8 79 0.0 W 19 22 10 12 1009.4 1008.2 -
30/03:11am -39.9 -47.5 -42.1 79 0.0 W 19 22 10 12 1009.4 1008.2 -
30/03:09am -45.7 -53.3 -47.8 79 0.0 W 19 22 10 12 1009.4 1008.2 -
30/03:08am -25.0 -32.4 -27.6 79 0.0 W 19 22 10 12 1009.4 1008.2 -
30/03:06am -48.4 -56.0 -50.4 80 0.0 W 19 22 10 12 1009.4 1008.2 -
30/03:02am -30.9 -38.4 -33.3 79 0.0 W 19 22 10 12 1009.4 1008.2 -
30/03:00am -37.8 -45.0 -40.1 79 0.0 W 17 22 9 12 1009.4 1008.2 0.0
30/02:59am -37.4 -44.6 -39.7 79 0.0 W 17 22 9 12 1009.4 1008.2 -
30/02:55am -43.6 -50.8 -45.8 79 0.0 W 17 22 9 12 1009.4 1008.2 -
30/02:53am -33.3 -40.4 -35.8 78 0.0 W 17 22 9 12 1009.4 1008.2 -
30/02:52am -44.3 -51.5 -46.5 79 0.0 W 17 22 9 12 1009.4 1008.2 -
30/02:49am -37.3 -44.5 -39.7 78 0.0 W 17 22 9 12 1009.4 1008.2 -
30/02:48am -43.0 -50.2 -45.3 78 0.0 W 17 20 9 11 1009.4 1008.2 -
30/02:47am -20.0 -26.9 -22.8 78 0.1 W 17 20 9 11 1009.4 1008.2 -
30/02:46am -43.8 -51.0 -46.0 79 0.0 W 17 20 9 11 1009.4 1008.2 -
30/02:45am -32.7 -39.8 -35.2 78 0.0 W 17 20 9 11 1009.4 1008.2 -
30/02:44am -46.2 -53.4 -48.4 78 0.0 W 17 20 9 11 1009.4 1008.2 -
30/02:43am -39.9 -47.1 -42.2 79 0.0 W 17 20 9 11 1009.4 1008.2 -
30/02:41am -26.1 -33.1 -28.9 77 0.0 W 17 22 9 12 1009.3 1008.1 -
30/02:34am -38.1 -45.7 -40.6 77 0.0 W 19 24 10 13 1009.3 1008.1 -
30/02:30am -46.9 -54.5 -49.3 76 0.0 W 19 24 10 13 1009.3 1008.1 -
30/02:29am -49.6 -57.2 -51.9 77 0.0 W 19 24 10 13 1009.3 1008.1 -
30/02:24am -38.8 -46.4 -41.5 76 0.0 W 19 24 10 13 1009.3 1008.1 -
30/02:21am -32.7 -39.8 -35.6 75 0.0 W 17 24 9 13 1009.3 1008.1 -
30/02:20am -40.1 -47.3 -42.8 75 0.0 W 17 24 9 13 1009.3 1008.1 -
30/02:17am -48.4 -55.6 -50.9 75 0.0 W 17 24 9 13 1009.3 1008.1 -
30/02:16am -27.2 -34.6 -30.3 75 0.0 W 19 24 10 13 1009.3 1008.1 -
30/02:14am -45.9 -53.5 -48.6 74 0.0 W 19 26 10 14 1009.3 1008.1 -
30/02:13am -30.6 -38.1 -33.7 74 0.0 W 19 26 10 14 1009.3 1008.1 -
30/02:05am -48.0 -55.8 -50.6 75 0.0 W 20 26 11 14 1009.4 1008.2 -
30/02:04am -41.7 -49.5 -44.6 73 0.0 W 20 24 11 13 1009.4 1008.2 -
30/02:01am -36.6 -44.3 -39.6 74 0.0 W 20 26 11 14 1009.4 1008.2 -
30/02:00am -45.2 -53.0 -48.0 73 0.0 W 20 26 11 14 1009.4 1008.2 -
30/01:53am -48.0 -55.8 -50.8 73 0.0 W 20 28 11 15 1009.4 1008.2 -
30/01:51am -38.8 -46.5 -41.9 72 0.0 W 20 28 11 15 1009.4 1008.2 -
30/01:49am -46.3 -54.1 -49.2 72 0.0 W 20 28 11 15 1009.5 1008.3 -
30/01:48am -37.3 -45.0 -40.5 72 0.0 W 20 28 11 15 1009.5 1008.3 -
30/01:47am -26.7 -34.3 -30.3 72 0.1 W 20 28 11 15 1009.5 1008.3 -
30/01:44am -49.9 -57.7 -52.8 72 0.0 W 20 24 11 13 1009.5 1008.3 -
30/01:43am -29.6 -37.3 -33.1 72 0.0 W 20 24 11 13 1009.5 1008.3 -
30/01:42am -21.7 -29.1 -25.5 71 0.1 W 19 24 10 13 1009.5 1008.3 -
30/01:38am -49.7 -57.3 -52.7 71 0.0 W 19 22 10 12 1009.5 1008.3 -
30/01:36am -42.7 -49.9 -46.1 69 0.0 W 17 22 9 12 1009.6 1008.4 -
30/01:35am -48.6 -55.8 -51.8 69 0.0 W 17 22 9 12 1009.6 1008.4 -
30/01:34am -23.9 -30.9 -27.9 70 0.1 W 17 22 9 12 1009.6 1008.4 -
30/01:33am -44.5 -51.7 -47.8 70 0.0 W 17 22 9 12 1009.6 1008.4 -
30/01:32am -20.8 -27.8 -24.8 70 0.2 W 17 22 9 12 1009.7 1008.5 -
30/01:31am -49.2 -56.4 -52.3 70 0.0 W 17 22 9 12 1009.7 1008.5 -
30/01:30am -31.9 -39.0 -35.7 69 0.0 W 17 22 9 12 1009.7 1008.5 -
30/01:28am -46.1 -53.3 -49.4 69 0.0 W 17 22 9 12 1009.7 1008.5 -
30/01:26am -34.6 -41.8 -38.3 69 0.0 W 17 22 9 12 1009.7 1008.5 -
30/01:25am -21.3 -28.3 -25.4 69 0.2 W 17 22 9 12 1009.7 1008.5 -
30/01:24am -40.9 -48.1 -44.3 70 0.0 W 17 22 9 12 1009.7 1008.5 -
30/01:23am -33.1 -40.2 -36.8 69 0.0 W 17 22 9 12 1009.7 1008.5 -
30/01:20am -25.9 -32.6 -29.9 69 0.1 W 15 22 8 12 1009.7 1008.5 -
30/01:19am -15.7 -22.1 -20.1 69 0.4 W 15 22 8 12 1009.8 1008.6 -
30/01:18am -21.3 -27.9 -25.4 69 0.2 W 15 22 8 12 1009.8 1008.6 -
30/01:16am -28.5 -35.2 -32.4 69 0.1 W 15 22 8 12 1009.8 1008.6 -
30/01:15am -35.2 -41.6 -38.8 70 0.0 W 13 22 7 12 1009.8 1008.6 -
30/01:12am -21.4 -27.6 -25.5 69 0.2 W 13 19 7 10 1009.9 1008.7 -
30/01:11am -30.7 -37.1 -34.5 69 0.0 W 13 19 7 10 1009.9 1008.7 -
30/01:09am -43.3 -49.7 -46.6 70 0.0 W 13 19 7 10 1009.9 1008.7 -
30/01:08am -20.3 -26.5 -24.5 69 0.2 W 13 19 7 10 1009.9 1008.7 -
30/01:07am -26.7 -33.0 -30.6 70 0.1 W 13 19 7 10 1009.9 1008.7 -
30/01:06am -33.8 -40.2 -37.5 69 0.0 W 13 19 7 10 1009.9 1008.7 -
30/01:04am -16.2 -22.3 -20.5 69 0.3 W 13 19 7 10 1009.9 1008.7 -
30/01:02am -26.9 -32.8 -30.8 69 0.1 W 11 17 6 9 1010.0 1008.8 -
30/01:01am -41.1 -47.2 -44.5 70 0.0 W 11 17 6 9 1010.0 1008.8 -
30/01:00am -13.2 -18.8 -17.7 69 0.5 W 11 17 6 9 1010.0 1008.8 -
30/12:59am -35.9 -41.9 -39.5 69 0.0 W 11 17 6 9 1010.0 1008.8 -
30/12:57am -24.1 -30.0 -28.1 69 0.1 W 11 17 6 9 1010.0 1008.8 -
30/12:56am -39.6 -45.6 -43.1 69 0.0 W 11 17 6 9 1010.0 1008.8 -
30/12:53am -23.8 -29.7 -27.8 70 0.1 W 11 15 6 8 1010.0 1008.8 -
30/12:50am -16.8 -22.5 -21.1 69 0.3 W 11 15 6 8 1010.1 1009.0 -
30/12:49am -32.5 -38.5 -36.2 70 0.0 W 11 17 6 9 1010.1 1009.0 -
30/12:46am -22.9 -29.1 -27.0 69 0.1 W 13 19 7 10 1010.2 1009.1 -
30/12:45am -37.1 -43.5 -40.7 69 0.0 W 13 19 7 10 1010.2 1009.1 -
30/12:44am -45.6 -52.0 -48.9 69 0.0 W 13 20 7 11 1010.2 1009.1 -
30/12:42am -23.0 -29.6 -27.1 69 0.1 W 15 20 8 11 1010.2 1009.1 -
30/12:41am -17.5 -24.0 -21.8 69 0.3 W 15 20 8 11 1010.2 1009.1 -
30/12:40am -23.6 -30.2 -27.7 69 0.1 W 15 20 8 11 1010.2 1009.1 -
30/12:39am -32.1 -38.9 -35.8 70 0.0 W 15 20 8 11 1010.2 1009.1 -
30/12:38am -42.4 -49.2 -45.7 70 0.0 W 15 20 8 11 1010.2 1009.1 -
30/12:34am -30.8 -37.5 -34.4 71 0.0 W 15 20 8 11 1010.2 1009.1 -
30/12:33am -22.5 -29.1 -26.4 70 0.1 W 15 20 8 11 1010.3 1009.2 -
30/12:30am -35.7 -42.9 -39.2 70 0.0 W 17 22 9 12 1010.3 1009.2 -
30/12:29am -19.3 -26.2 -23.4 70 0.2 W 17 22 9 12 1010.3 1009.2 -
30/12:28am -13.2 -19.9 -17.3 71 0.4 W 17 22 9 12 1010.3 1009.2 -
30/12:27am -6.5 -12.9 -11.0 70 0.9 W 17 22 9 12 1010.3 1009.2 -
30/12:26am -17.6 -24.5 -21.7 70 0.3 W 17 22 9 12 1010.3 1009.2 -
30/12:25am -10.9 -17.5 -15.1 71 0.6 W 17 22 9 12 1010.3 1009.2 -
30/12:22am -26.4 -33.5 -30.1 71 0.1 W 17 22 9 12 1010.3 1009.2 -
30/12:21am -18.3 -25.2 -22.2 71 0.2 W 17 22 9 12 1010.3 1009.2 -
30/12:20am -27.2 -34.3 -30.8 71 0.0 W 17 22 9 12 1010.4 1009.3 -
30/12:17am -18.9 -25.4 -22.8 71 0.2 W 15 22 8 12 1010.4 1009.3 -
30/12:16am -42.7 -49.5 -45.8 72 0.0 W 15 22 8 12 1010.4 1009.3 -
30/12:15am -31.7 -38.4 -35.2 71 0.0 W 15 22 8 12 1010.4 1009.3 -
30/12:12am -39.2 -46.0 -42.4 72 0.0 W 15 20 8 11 1010.4 1009.3 -
30/12:08am -27.2 -34.3 -30.7 72 0.0 W 17 22 9 12 1010.4 1009.3 -
30/12:06am -42.0 -49.2 -45.0 73 0.0 W 17 22 9 12 1010.4 1009.3 -
30/12:05am -47.3 -54.1 -50.0 74 0.0 W 15 22 8 12 1010.4 1009.3 -
30/12:04am -34.1 -40.9 -37.2 74 0.0 W 15 22 8 12 1010.4 1009.3 -
30/12:03am -40.8 -47.6 -43.7 74 0.0 W 15 22 8 12 1010.4 1009.3 -
30/12:02am -31.4 -38.1 -34.6 73 0.0 W 15 22 8 12 1010.4 1009.3 -
30/12:01am -43.3 -50.1 -46.1 74 0.0 W 15 22 8 12 1010.4 1009.3 -
30/12:00am -35.0 -41.8 -38.1 73 0.0 W 15 22 8 12 1010.5 1009.4 -
 
Date/Time
WST
Temp
°C
App
Temp
°C
Dew
Point
Rel
Hum
%
Delta-T
°C
Wind Press
QNH
hPa
Press
MSL
hPa
Rain
since 9 am
mm
Dir
 
Spd
km/h
Gust
km/h
Spd
kts
Gust
kts
29/11:58pm -32.2 -38.9 -35.4 73 0.0 W 15 19 8 10 1010.5 1009.4 -
29/11:56pm -21.0 -27.6 -24.5 73 0.1 W 15 19 8 10 1010.5 1009.4 -
29/11:55pm -9.8 -15.9 -13.7 73 0.6 W 15 19 8 10 1010.5 1009.4 -
29/11:53pm -41.0 -47.8 -43.9 74 0.0 W 15 19 8 10 1010.5 1009.4 -
29/11:47pm -22.8 -29.4 -26.3 73 0.1 W 15 20 8 11 1010.6 1009.5 -
29/11:46pm -46.0 -52.8 -48.8 73 0.0 W 15 20 8 11 1010.6 1009.5 -
29/11:45pm -40.9 -48.1 -43.7 74 0.0 W 17 20 9 11 1010.6 1009.5 -
29/11:43pm -48.6 -55.8 -51.3 74 0.0 W 17 20 9 11 1010.6 1009.5 -
29/11:41pm -39.3 -46.5 -42.1 75 0.0 W 17 22 9 12 1010.6 1009.5 -
29/11:36pm -48.1 -55.7 -50.7 75 0.0 W 19 22 10 12 1010.6 1009.5 -
29/11:30pm -38.4 -46.0 -41.3 74 0.0 W 19 24 10 13 1010.8 1009.6 -
29/11:21pm -49.2 -56.8 -51.8 74 0.0 W 19 24 10 13 1010.9 1009.7 -
29/11:16pm -40.5 -48.1 -43.4 74 0.0 W 19 24 10 13 1011.0 1009.8 -
29/11:15pm -46.0 -53.6 -48.8 73 0.0 W 19 24 10 13 1010.9 1009.7 -
29/11:09pm -40.7 -47.9 -43.6 74 0.0 W 17 24 9 13 1011.1 1009.9 -
29/11:08pm -35.6 -42.8 -38.7 73 0.0 W 17 24 9 13 1011.1 1009.9 -
29/11:05pm -26.8 -33.9 -30.1 74 0.0 W 17 22 9 12 1011.2 1010.0 -
29/11:00pm -44.4 -51.6 -47.3 73 0.0 W 17 22 9 12 1011.3 1010.1 -
29/10:57pm -28.4 -35.1 -31.8 73 0.0 WNW 15 22 8 12 1011.3 1010.1 -
29/10:51pm -43.1 -49.9 -46.0 73 0.0 WNW 15 19 8 10 1011.3 1010.1 -
29/10:49pm -36.3 -43.1 -39.4 73 0.0 WNW 15 19 8 10 1011.3 1010.1 -
29/10:48pm -43.6 -50.4 -46.4 74 0.0 WNW 15 22 8 12 1011.4 1010.2 -
29/10:47pm -38.0 -44.8 -41.0 73 0.0 WNW 15 22 8 12 1011.3 1010.1 -
29/10:44pm -46.3 -53.5 -49.1 73 0.0 WNW 17 22 9 12 1011.4 1010.2 -
29/10:43pm -27.8 -34.9 -31.1 73 0.0 WNW 17 22 9 12 1011.4 1010.2 -
29/10:40pm -48.5 -56.1 -51.2 74 0.0 WNW 19 24 10 13 1011.4 1010.2 -
29/10:39pm -27.0 -34.4 -30.3 74 0.0 WNW 19 24 10 13 1011.4 1010.2 -
29/10:38pm -43.2 -50.8 -46.1 73 0.0 WNW 19 24 10 13 1011.4 1010.2 -
29/10:37pm -20.0 -27.3 -23.6 73 0.1 WNW 19 24 10 13 1011.4 1010.2 -
29/10:35pm -28.1 -35.6 -31.6 72 0.0 WNW 19 24 10 13 1011.4 1010.2 -
29/10:34pm -45.0 -52.6 -47.9 73 0.0 WNW 19 24 10 13 1011.4 1010.2 -
29/10:33pm -26.8 -34.2 -30.3 72 0.0 WNW 19 26 10 14 1011.5 1010.3 -
29/10:31pm -36.5 -44.0 -39.7 72 0.0 WNW 19 26 10 14 1011.5 1010.3 -
29/10:30pm -41.9 -49.5 -45.0 72 0.0 WNW 19 26 10 14 1011.5 1010.3 -
29/10:25pm -44.3 -51.9 -47.5 70 0.0 WNW 19 26 10 14 1011.5 1010.3 -
29/10:24pm -39.2 -46.8 -42.6 70 0.0 WNW 19 26 10 14 1011.5 1010.3 -
29/10:23pm -26.9 -34.3 -30.5 71 0.1 WNW 19 26 10 14 1011.5 1010.3 -
29/10:20pm -44.4 -52.0 -47.6 70 0.0 WNW 19 26 10 14 1011.5 1010.3 -
29/10:19pm -35.6 -43.1 -39.1 70 0.0 WNW 19 26 10 14 1011.5 1010.3 -
29/10:17pm -46.8 -54.4 -49.9 71 0.0 WNW 19 24 10 13 1011.6 1010.4 -
29/10:16pm -35.6 -42.8 -39.2 70 0.0 WNW 17 24 9 13 1011.6 1010.4 -
29/10:15pm -45.1 -52.3 -48.4 69 0.0 WNW 17 24 9 13 1011.6 1010.4 -
29/10:13pm -33.1 -40.2 -36.7 70 0.0 WNW 17 24 9 13 1011.6 1010.4 -
29/10:12pm -46.2 -53.4 -49.3 71 0.0 WNW 17 20 9 11 1011.6 1010.4 -
29/10:10pm -38.5 -45.7 -41.9 70 0.0 WNW 17 20 9 11 1011.6 1010.4 -
29/10:08pm -47.2 -54.0 -50.2 71 0.0 WNW 15 20 8 11 1011.6 1010.4 -
29/10:07pm -22.2 -28.8 -26.0 71 0.1 WNW 15 20 8 11 1011.6 1010.4 -
29/10:04pm -45.0 -51.8 -47.9 73 0.0 WNW 15 19 8 10 1011.7 1010.5 -
29/10:03pm -21.0 -27.6 -24.7 72 0.1 WNW 15 19 8 10 1011.7 1010.5 -
29/10:00pm -48.8 -55.6 -51.6 73 0.0 WNW 15 19 8 10 1011.7 1010.5 -
29/09:59pm -49.4 -56.2 -52.2 73 0.0 WNW 15 20 8 11 1011.7 1010.5 -
29/09:51pm -41.2 -48.0 -44.1 74 0.0 WNW 15 20 8 11 1011.7 1010.5 -
29/09:50pm -10.4 -16.6 -14.3 73 0.5 WNW 15 20 8 11 1011.7 1010.5 -
29/09:49pm -38.9 -45.7 -41.9 73 0.0 WNW 15 19 8 10 1011.7 1010.5 -
29/09:48pm -48.3 -55.1 -50.9 74 0.0 WNW 15 19 8 10 1011.7 1010.5 -
29/09:47pm -41.4 -47.8 -44.2 74 0.0 WNW 13 17 7 9 1011.8 1010.6 -
29/09:46pm -49.9 -56.4 -52.4 75 0.0 WNW 13 17 7 9 1011.8 1010.6 -
29/09:43pm -41.5 -47.9 -44.2 75 0.0 NW 13 17 7 9 1011.8 1010.6 -
29/09:42pm -28.6 -34.9 -31.6 75 0.0 NW 13 17 7 9 1011.8 1010.6 -
29/09:41pm -39.8 -46.2 -42.5 75 0.0 NW 13 17 7 9 1011.8 1010.6 -
29/09:40pm -47.5 -53.9 -50.0 75 0.0 NW 13 17 7 9 1011.8 1010.6 -
29/09:39pm -39.9 -46.3 -42.6 75 0.0 NW 13 17 7 9 1011.8 1010.6 -
29/09:38pm -34.7 -41.1 -37.4 76 0.0 NW 13 15 7 8 1011.8 1010.6 -
29/09:34pm -42.1 -48.5 -44.6 77 0.0 NW 13 17 7 9 1011.8 1010.6 -
29/09:33pm -28.9 -35.2 -31.8 76 0.0 NW 13 17 7 9 1011.8 1010.6 -
29/09:30pm -49.7 -56.2 -52.0 77 0.0 NW 13 19 7 10 1011.8 1010.6 -
29/09:29pm -49.7 -56.2 -52.0 77 0.0 NW 13 19 7 10 1011.8 1010.6 -
29/09:28pm -19.5 -25.6 -22.6 76 0.1 NW 13 19 7 10 1011.8 1010.6 -
29/09:25pm -25.5 -31.8 -28.5 76 0.0 NW 13 19 7 10 1011.8 1010.6 -
29/09:24pm -31.2 -37.6 -34.0 76 0.0 NW 13 19 7 10 1011.8 1010.6 -
29/09:18pm -24.1 -30.7 -27.2 75 0.0 NW 15 20 8 11 1011.8 1010.6 -
29/09:17pm -15.7 -22.1 -19.1 75 0.2 NW 15 20 8 11 1011.7 1010.5 -
29/09:16pm -29.1 -35.8 -32.1 75 0.0 NW 15 20 8 11 1011.7 1010.5 -
29/09:14pm -38.7 -45.5 -41.4 76 0.0 NW 15 20 8 11 1011.7 1010.5 -
29/09:13pm -11.7 -17.9 -15.2 75 0.4 NW 15 20 8 11 1011.7 1010.5 -
29/09:12pm -31.2 -38.3 -34.1 76 0.0 NW 17 20 9 11 1011.7 1010.5 -
29/09:11pm -16.7 -23.5 -20.1 75 0.2 NW 17 20 9 11 1011.7 1010.5 -
29/09:10pm -26.1 -33.1 -29.2 75 0.0 NW 17 20 9 11 1011.7 1010.5 -
29/09:09pm -21.0 -27.9 -24.2 75 0.1 NW 17 20 9 11 1011.7 1010.5 -
29/09:08pm -34.6 -41.4 -37.4 76 0.0 NW 15 20 8 11 1011.8 1010.6 -
29/09:06pm -23.7 -30.3 -26.7 76 0.0 NW 15 20 8 11 1011.8 1010.6 -
29/09:05pm -10.6 -16.8 -14.0 76 0.4 NW 15 20 8 11 1011.8 1010.6 -
29/09:04pm -32.1 -38.8 -34.9 76 0.0 NW 15 20 8 11 1011.7 1010.5 -
29/09:03pm -12.1 -18.3 -15.4 76 0.3 NW 15 20 8 11 1011.7 1010.5 -
29/09:02pm -20.2 -26.4 -23.2 77 0.1 NW 13 20 7 11 1011.8 1010.6 -
29/09:01pm -28.9 -35.2 -31.6 77 0.0 NW 13 17 7 9 1011.7 1010.5 -
29/09:00pm -21.9 -28.1 -24.8 77 0.0 NNW 13 17 7 9 1011.7 1010.5 0.0
29/08:59pm -28.6 -34.9 -31.3 78 0.0 NNW 13 17 7 9 1011.7 1010.5 -
29/08:57pm -16.7 -23.1 -19.8 77 0.2 NNW 15 17 8 9 1011.7 1010.5 -
29/08:56pm -21.9 -28.5 -24.8 77 0.0 NNW 15 17 8 9 1011.7 1010.5 -
29/08:55pm -35.9 -42.7 -38.5 77 0.0 NNW 15 20 8 11 1011.7 1010.5 -
29/08:54pm -23.3 -29.9 -26.2 77 0.0 NNW 15 20 8 11 1011.7 1010.5 -
29/08:52pm -9.5 -15.6 -12.8 77 0.5 NNW 15 20 8 11 1011.6 1010.4 -
29/08:51pm 5.5 1.0 2.0 78 1.4 NNW 15 20 8 11 1011.6 1010.4 -
29/08:50pm -14.4 -20.7 -17.4 78 0.2 NNW 15 20 8 11 1011.6 1010.4 -
29/08:46pm -4.0 -10.1 -7.3 78 0.8 NNW 17 20 9 11 1011.6 1010.4 -
29/08:42pm -19.9 -26.8 -22.9 77 0.1 NNW 17 20 9 11 1011.5 1010.3 -
29/08:40pm -11.2 -17.8 -14.4 77 0.4 NNW 17 20 9 11 1011.5 1010.3 -
29/08:39pm -24.7 -31.7 -27.5 77 0.0 NNW 17 20 9 11 1011.6 1010.4 -
29/08:38pm -15.2 -22.0 -18.3 77 0.2 NNW 17 20 9 11 1011.5 1010.3 -
29/08:37pm -30.9 -38.0 -33.6 77 0.0 NNW 17 20 9 11 1011.6 1010.4 -
29/08:36pm -19.8 -26.7 -22.9 76 0.1 NNW 17 20 9 11 1011.5 1010.3 -
29/08:35pm -41.8 -49.0 -44.3 77 0.0 NNW 17 20 9 11 1011.5 1010.3 -
29/08:34pm 14.7 11.7 10.5 76 2.2 NNW 17 20 9 11 1011.5 1010.3 -
29/08:33pm 1.6 -3.9 -2.2 76 1.3 NNW 17 20 9 11 1011.5 1010.3 -
29/08:31pm -31.7 -38.8 -34.5 76 0.0 NNW 17 20 9 11 1011.5 1010.3 -
29/08:30pm -13.5 -20.2 -16.8 76 0.3 NNW 17 20 9 11 1011.5 1010.3 -
29/08:28pm -23.0 -30.0 -26.0 76 0.0 NNW 17 20 9 11 1011.5 1010.3 -
29/08:27pm -43.3 -50.5 -45.8 76 0.0 NNW 17 20 9 11 1011.5 1010.3 -
29/08:24pm -31.9 -39.0 -34.8 75 0.0 NNW 17 20 9 11 1011.5 1010.3 -
29/08:23pm -17.6 -24.4 -20.9 75 0.2 NNW 17 20 9 11 1011.5 1010.3 -
29/08:22pm -24.5 -31.5 -27.6 75 0.0 NNW 17 20 9 11 1011.5 1010.3 -
29/08:21pm -14.0 -20.7 -17.4 75 0.3 NNW 17 20 9 11 1011.5 1010.3 -
29/08:20pm -46.2 -53.4 -48.7 76 0.0 NNW 17 24 9 13 1011.5 1010.3 -
29/08:19pm -15.8 -22.6 -19.2 75 0.2 NNW 17 24 9 13 1011.5 1010.3 -
29/08:18pm -29.0 -36.5 -32.1 75 0.0 NNW 19 24 10 13 1011.5 1010.3 -
29/08:17pm -12.8 -19.8 -16.4 74 0.4 NNW 19 24 10 13 1011.5 1010.3 -
29/08:16pm -33.6 -41.1 -36.6 74 0.0 NNW 19 24 10 13 1011.4 1010.2 -
29/08:14pm -28.1 -35.6 -31.3 74 0.0 NNW 19 24 10 13 1011.5 1010.3 -
29/08:12pm -17.8 -25.0 -21.3 74 0.2 NNW 19 24 10 13 1011.5 1010.3 -
29/08:11pm -41.4 -49.0 -44.2 74 0.0 NNW 19 24 10 13 1011.4 1010.2 -
29/08:10pm -13.2 -20.3 -16.8 74 0.3 NNW 19 24 10 13 1011.4 1010.2 -
29/08:09pm -38.0 -45.6 -40.9 74 0.0 NNW 19 24 10 13 1011.5 1010.3 -
29/08:08pm -30.9 -38.4 -34.1 73 0.0 NNW 19 22 10 12 1011.4 1010.2 -
29/08:06pm -13.1 -19.8 -16.9 73 0.4 NNW 17 22 9 12 1011.4 1010.2 -
29/08:05pm -44.8 -52.0 -47.7 73 0.0 NNW 17 22 9 12 1011.4 1010.2 -
29/08:04pm -22.5 -29.5 -26.0 73 0.1 NNW 17 22 9 12 1011.4 1010.2 -
29/08:02pm -12.4 -19.1 -16.4 72 0.4 NNW 17 22 9 12 1011.3 1010.1 -
29/08:01pm -20.5 -27.4 -24.2 72 0.1 NNW 17 22 9 12 1011.3 1010.1 -
29/08:00pm -41.0 -48.2 -44.2 71 0.0 NNW 17 22 9 12 1011.4 1010.2 -
29/07:59pm -46.0 -53.2 -49.0 72 0.0 NNW 17 22 9 12 1011.4 1010.2 -
29/07:58pm -15.8 -22.6 -19.8 71 0.3 NNW 17 22 9 12 1011.3 1010.1 -
29/07:57pm -36.6 -43.4 -40.0 71 0.0 NNW 15 19 8 10 1011.3 1010.1 -
29/07:56pm -11.7 -18.3 -16.0 70 0.5 NNW 17 20 9 11 1011.3 1010.1 -
29/07:55pm -31.5 -38.6 -35.1 70 0.0 NNW 17 24 9 13 1011.3 1010.1 -
29/07:54pm -47.9 -55.1 -51.1 70 0.0 NNW 17 24 9 13 1011.3 1010.1 -
29/07:52pm -29.0 -36.1 -32.7 70 0.0 NNW 17 24 9 13 1011.3 1010.1 -
29/07:51pm -19.6 -26.5 -23.6 70 0.2 NNW 17 24 9 13 1011.3 1010.1 -
29/07:50pm -29.9 -37.4 -33.6 70 0.0 NNW 19 24 10 13 1011.3 1010.1 -
29/07:49pm -41.6 -49.2 -44.9 70 0.0 NNW 19 24 10 13 1011.3 1010.1 -
29/07:47pm -19.8 -27.1 -23.8 70 0.2 NNW 19 24 10 13 1011.3 1010.1 -
29/07:46pm -8.5 -15.4 -13.0 70 0.8 NNW 19 24 10 13 1011.3 1010.1 -
29/07:45pm -33.0 -40.5 -36.6 70 0.0 NNW 19 24 10 13 1011.3 1010.1 -
29/07:43pm -27.3 -34.8 -31.2 69 0.1 NNW 19 24 10 13 1011.2 1010.0 -
29/07:42pm -44.7 -52.5 -48.0 70 0.0 NNW 20 24 11 13 1011.2 1010.0 -
29/07:41pm -17.7 -25.0 -22.0 69 0.3 NNW 19 24 10 13 1011.2 1010.0 -
29/07:40pm -35.3 -42.8 -38.9 70 0.0 NNW 19 24 10 13 1011.2 1010.0 -
29/07:39pm -18.8 -26.1 -23.2 68 0.3 NNW 19 24 10 13 1011.2 1010.0 -
29/07:38pm -47.4 -55.0 -50.7 69 0.0 NNW 19 24 10 13 1011.2 1010.0 -
29/07:36pm -29.6 -37.3 -33.7 68 0.1 NNW 20 24 11 13 1011.1 1009.9 -
29/07:35pm -18.9 -26.4 -23.5 67 0.3 NNW 20 24 11 13 1011.1 1009.9 -
29/07:34pm -18.5 -26.0 -23.1 67 0.3 NNW 20 24 11 13 1011.1 1009.9 -
29/07:33pm -24.9 -32.3 -29.4 66 0.1 NNW 19 24 10 13 1011.1 1009.9 -
29/07:32pm -15.5 -22.7 -20.4 66 0.4 NNW 19 24 10 13 1011.1 1009.9 -
29/07:30pm -23.3 -30.7 -27.8 67 0.2 NNW 19 24 10 13 1011.1 1009.9 -
29/07:29pm -5.1 -11.8 -10.4 66 1.2 NNW 19 24 10 13 1011.1 1009.9 -
29/07:28pm -16.9 -24.2 -21.7 66 0.4 NNW 19 24 10 13 1011.1 1009.9 -
29/07:27pm -42.8 -50.4 -46.6 66 0.0 NNW 19 24 10 13 1011.1 1009.9 -
29/07:26pm -28.9 -36.4 -33.4 65 0.1 NNW 19 24 10 13 1011.1 1009.9 -
29/07:24pm -8.1 -15.0 -13.5 65 1.0 NNW 19 24 10 13 1011.1 1009.9 -
29/07:23pm -28.7 -36.2 -33.2 65 0.1 NNW 19 24 10 13 1011.1 1009.9 -
29/07:22pm 8.9 3.7 2.7 65 2.7 NNW 19 24 10 13 1011.1 1009.9 -
29/07:21pm -7.0 -13.8 -12.6 64 1.1 NNW 19 24 10 13 1011.1 1009.9 -
29/07:20pm -1.5 -8.0 -7.4 64 1.7 NNW 19 24 10 13 1011.1 1009.9 -
29/07:18pm -49.2 -56.8 -53.0 65 0.0 NNW 19 24 10 13 1011.0 1009.8 -
29/07:17pm -41.7 -49.3 -45.9 64 0.0 NNW 19 24 10 13 1011.0 1009.8 -
29/07:16pm -36.6 -44.2 -41.0 64 0.0 NNW 19 24 10 13 1011.0 1009.8 -
29/07:14pm -12.2 -19.3 -17.8 63 0.7 NNW 19 24 10 13 1011.0 1009.8 -
29/07:13pm -42.0 -49.6 -46.2 64 0.0 NNW 19 24 10 13 1011.0 1009.8 -
29/07:11pm -47.1 -54.7 -51.1 64 0.0 NNW 19 24 10 13 1010.9 1009.7 -
29/07:10pm -28.5 -36.0 -33.5 62 0.1 NNW 19 24 10 13 1010.9 1009.7 -
29/07:09pm -12.0 -19.1 -17.8 62 0.7 NNW 19 22 10 12 1010.9 1009.7 -
29/07:08pm 16.8 13.0 9.2 61 4.0 NNW 19 22 10 12 1010.9 1009.7 -
29/07:07pm -2.1 -8.7 -8.6 61 1.8 NNW 19 24 10 13 1010.9 1009.7 -
29/07:06pm -14.1 -21.3 -20.0 61 0.6 NNW 19 26 10 14 1010.9 1009.7 -
29/07:05pm -1.9 -8.5 -8.6 60 1.8 NNW 19 26 10 14 1010.9 1009.7 -
29/07:03pm -11.7 -19.0 -17.9 60 0.8 NNW 20 26 11 14 1010.9 1009.7 -
29/07:02pm -24.5 -32.1 -30.0 60 0.2 NNW 20 26 11 14 1010.9 1009.7 -
29/07:00pm 3.7 -2.5 -3.3 60 2.4 NNW 20 26 11 14 1010.9 1009.7 -
29/06:58pm 6.4 0.5 -0.8 60 2.8 NNW 20 26 11 14 1010.9 1009.7 -
29/06:57pm -29.7 -37.4 -34.9 61 0.1 NNW 20 26 11 14 1010.9 1009.7 -
29/06:56pm -11.0 -18.3 -17.2 60 0.9 NNW 20 26 11 14 1010.9 1009.7 -
29/06:55pm -16.2 -23.7 -22.3 59 0.5 NNW 20 26 11 14 1010.8 1009.6 -
29/06:53pm -33.7 -41.4 -38.9 59 0.1 NNW 20 26 11 14 1010.8 1009.6 -
29/06:52pm -14.6 -22.0 -20.8 59 0.6 NNW 20 26 11 14 1010.9 1009.7 -
29/06:50pm -24.0 -31.6 -29.9 58 0.2 NNW 20 24 11 13 1010.8 1009.6 -
29/06:49pm 3.0 -3.3 -4.4 58 2.5 NNW 20 24 11 13 1010.8 1009.6 -
29/06:48pm -18.1 -25.6 -24.3 58 0.5 NNW 20 26 11 14 1010.6 1009.5 -
29/06:47pm -5.6 -12.6 -12.5 58 1.5 NNW 20 26 11 14 1010.6 1009.5 -
29/06:45pm -20.5 -28.1 -26.8 57 0.4 NNW 20 26 11 14 1010.6 1009.5 -
29/06:44pm -9.7 -16.9 -16.6 57 1.1 NNW 20 26 11 14 1010.6 1009.5 -
29/06:43pm -17.2 -24.7 -23.7 57 0.5 NNW 20 26 11 14 1010.6 1009.5 -
29/06:37pm -26.4 -33.9 -32.7 55 0.2 NNW 19 26 10 14 1010.6 1009.5 -
29/06:35pm -8.4 -15.4 -16.0 54 1.3 NNW 19 24 10 13 1010.6 1009.5 -
29/06:34pm -22.4 -29.8 -29.1 54 0.3 NNW 19 24 10 13 1010.6 1009.5 -
29/06:32pm -13.0 -20.2 -20.3 54 0.9 NNW 19 24 10 13 1010.6 1009.5 -
29/06:31pm -20.9 -28.3 -27.9 53 0.4 NNW 19 24 10 13 1010.6 1009.5 -
29/06:30pm -14.6 -21.9 -22.2 52 0.8 NNW 19 24 10 13 1010.5 1009.4 -
29/06:29pm -45.0 -52.6 -50.7 53 0.0 NNW 19 26 10 14 1010.6 1009.5 -
29/06:28pm -39.0 -46.8 -45.3 51 0.1 NNW 20 26 11 14 1010.6 1009.5 -
29/06:27pm -27.7 -35.4 -34.7 51 0.2 NNW 20 26 11 14 1010.5 1009.4 -
29/06:26pm -33.9 -41.6 -40.5 51 0.1 NNW 20 26 11 14 1010.6 1009.5 -
29/06:25pm -23.7 -31.3 -30.9 52 0.3 NNW 20 26 11 14 1010.6 1009.5 -
29/06:24pm -8.8 -16.1 -17.1 51 1.4 NNW 20 26 11 14 1010.6 1009.5 -
29/06:23pm -27.7 -35.4 -34.7 51 0.2 NNW 20 26 11 14 1010.6 1009.5 -
29/06:22pm -16.6 -24.1 -24.3 51 0.7 NNW 20 26 11 14 1010.6 1009.5 -
29/06:21pm -28.3 -36.0 -35.2 52 0.2 NNW 20 26 11 14 1010.6 1009.5 -
29/06:20pm -10.1 -17.4 -18.5 50 1.3 NNW 20 26 11 14 1010.6 1009.5 -
29/06:19pm -16.4 -23.9 -24.4 50 0.7 NNW 20 28 11 15 1010.6 1009.5 -
29/06:18pm -22.6 -30.6 -30.1 50 0.4 NNW 22 28 12 15 1010.5 1009.4 -
29/06:15pm -16.4 -23.9 -24.4 50 0.7 NNW 20 28 11 15 1010.5 1009.4 -
29/06:12pm -10.9 -18.6 -19.5 49 1.2 NNW 22 28 12 15 1010.4 1009.3 -
29/06:11pm -29.5 -37.6 -36.8 49 0.2 NNW 22 28 12 15 1010.4 1009.3 -
29/06:10pm -3.0 -10.4 -12.2 49 2.2 NNW 22 28 12 15 1010.5 1009.4 -
29/06:09pm -27.2 -35.3 -34.6 49 0.2 NNW 22 28 12 15 1010.4 1009.3 -
29/06:08pm -10.4 -17.7 -19.0 49 1.3 NNW 20 26 11 14 1010.4 1009.3 -
29/06:07pm -39.6 -47.4 -46.2 50 0.1 NNW 20 26 11 14 1010.4 1009.3 -
29/06:05pm -10.4 -17.8 -19.3 48 1.3 NNW 20 28 11 15 1010.4 1009.3 -
29/06:04pm -17.6 -25.2 -25.9 48 0.7 NNW 20 28 11 15 1010.4 1009.3 -
29/06:03pm -24.9 -32.6 -32.7 48 0.3 NNW 20 28 11 15 1010.4 1009.3 -
29/06:02pm -11.1 -18.5 -20.1 47 1.2 NNW 20 28 11 15 1010.4 1009.3 -
29/06:01pm -25.8 -33.5 -33.7 48 0.3 NNW 20 28 11 15 1010.4 1009.3 -
29/06:00pm -8.1 -15.4 -17.4 47 1.6 NNW 20 28 11 15 1010.3 1009.2 -
29/05:59pm -37.1 -45.2 -44.2 48 0.1 NNW 22 28 12 15 1010.3 1009.2 -
29/05:58pm -17.1 -25.0 -25.7 47 0.7 NNW 22 28 12 15 1010.3 1009.2 -
29/05:57pm -22.9 -30.6 -31.3 46 0.4 NNW 20 28 11 15 1010.3 1009.2 -
29/05:54pm -34.8 -42.6 -42.5 46 0.1 NW 20 28 11 15 1010.3 1009.2 -
29/05:51pm -48.0 -55.8 -54.7 46 0.0 NW 20 28 11 15 1010.2 1009.1 -
29/05:50pm -40.8 -48.6 -48.2 45 0.1 NW 20 28 11 15 1010.2 1009.1 -
29/05:47pm -49.8 -58.0 -56.6 45 0.0 NW 22 28 12 15 1010.1 1009.0 -
29/05:46pm -29.5 -37.6 -37.8 45 0.2 NW 22 28 12 15 1010.2 1009.1 -
29/05:44pm -35.4 -43.5 -43.2 45 0.1 NW 22 30 12 16 1010.2 1009.1 -
29/05:43pm -24.9 -33.0 -33.6 44 0.4 NW 22 30 12 16 1010.2 1009.1 -
29/05:42pm -39.5 -48.0 -47.0 45 0.1 NW 24 30 13 16 1010.1 1009.0 -
29/05:41pm -48.2 -56.7 -55.3 44 0.0 NW 24 32 13 17 1010.1 1009.0 -
29/05:40pm -27.9 -36.4 -36.6 43 0.3 NW 24 32 13 17 1010.1 1009.0 -
29/05:39pm -46.3 -54.8 -53.5 44 0.0 NW 24 32 13 17 1010.0 1008.8 -
29/05:37pm -20.6 -29.4 -29.9 43 0.6 NW 26 33 14 18 1010.0 1008.8 -
29/05:36pm -41.0 -49.9 -48.6 44 0.1 NW 26 33 14 18 1010.0 1008.8 -
29/05:35pm -30.1 -39.0 -38.8 43 0.2 NW 26 33 14 18 1010.0 1008.8 -
29/05:34pm -44.7 -53.6 -52.2 43 0.0 NW 26 33 14 18 1010.0 1008.8 -
29/05:33pm -36.7 -45.6 -44.9 43 0.1 NW 26 33 14 18 1009.9 1008.7 -
29/05:32pm -25.0 -34.2 -34.1 43 0.4 NW 28 33 15 18 1010.0 1008.8 -
29/05:31pm -42.2 -51.1 -50.1 42 0.1 NW 26 33 14 18 1009.9 1008.7 -
29/05:30pm -36.8 -46.1 -45.2 42 0.1 NW 28 33 15 18 1009.9 1008.7 -
29/05:27pm -44.3 -53.6 -52.3 41 0.0 NW 28 35 15 19 1009.9 1008.7 -
29/05:26pm -33.8 -43.1 -42.7 40 0.2 NW 28 35 15 19 1009.9 1008.7 -
29/05:24pm -27.4 -36.6 -36.8 40 0.3 NW 28 35 15 19 1009.8 1008.6 -
29/05:23pm -34.2 -43.5 -43.0 41 0.2 NW 28 35 15 19 1009.9 1008.7 -
29/05:21pm -21.7 -31.3 -31.9 39 0.6 NNW 30 35 16 19 1009.8 1008.6 -
29/05:18pm -34.2 -43.5 -43.5 39 0.2 NW 28 35 15 19 1009.8 1008.6 -
29/05:17pm -43.4 -52.7 -51.9 39 0.1 NW 28 35 15 19 1009.8 1008.6 -
29/05:15pm -38.1 -47.4 -47.0 39 0.1 NW 28 37 15 20 1009.8 1008.6 -
29/05:13pm -30.9 -40.2 -40.7 38 0.2 NW 28 37 15 20 1009.8 1008.6 -
29/05:10pm -24.4 -34.0 -35.1 37 0.5 NW 30 37 16 20 1009.8 1008.6 -
29/05:00pm -42.5 -52.2 -52.5 33 0.1 NW 30 39 16 21 1009.7 1008.5 -
29/04:48pm -27.6 -37.2 -41.1 27 0.4 NW 30 39 16 21 1009.6 1008.4 -
29/04:47pm -37.4 -47.1 -49.7 27 0.2 NW 30 39 16 21 1009.6 1008.4 -
29/04:46pm -43.9 -53.6 -55.8 26 0.1 NW 30 39 16 21 1009.5 1008.3 -
29/04:45pm -29.0 -38.7 -42.7 26 0.4 NW 30 39 16 21 1009.5 1008.3 -
29/04:42pm -44.8 -54.5 -56.6 26 0.1 NW 30 39 16 21 1009.5 1008.3 -
29/04:40pm -34.9 -44.6 -47.9 26 0.2 NW 30 39 16 21 1009.5 1008.3 -
29/04:39pm -40.9 -50.6 -53.1 26 0.1 NW 30 39 16 21 1009.5 1008.3 -
29/04:38pm -46.7 -56.4 -58.2 26 0.1 NW 30 39 16 21 1009.6 1008.4 -
29/04:37pm -29.5 -39.2 -43.5 25 0.4 NW 30 37 16 20 1009.6 1008.4 -
29/04:35pm -35.9 -45.6 -49.1 25 0.2 NW 30 39 16 21 1009.6 1008.4 -
29/04:33pm -49.7 -59.8 -53.0 68 0.0 NW 32 39 17 21 1009.4 1008.2 -
29/04:30pm -40.7 -50.8 -53.0 26 0.1 NW 32 39 17 21 1009.3 1008.1 -
29/04:24pm -47.5 -57.6 -58.6 27 0.0 NW 32 39 17 21 1009.4 1008.2 -
29/04:22pm -41.0 -51.1 -52.6 28 0.1 NW 32 39 17 21 1009.5 1008.3 -
29/04:20pm -32.9 -42.9 -45.4 28 0.2 NW 32 39 17 21 1009.5 1008.3 -
29/04:18pm -38.8 -48.9 -50.6 28 0.1 NW 32 39 17 21 1009.3 1008.1 -
29/04:17pm -32.0 -42.0 -44.6 28 0.3 NW 32 39 17 21 1009.4 1008.2 -
29/04:16pm -43.6 -53.7 -54.9 28 0.1 NW 32 41 17 22 1009.4 1008.2 -
29/04:15pm -36.7 -46.8 -48.8 28 0.2 NW 32 41 17 22 1009.4 1008.2 -
29/04:14pm -42.6 -52.7 -54.0 28 0.1 NW 32 41 17 22 1009.4 1008.2 -
29/04:13pm -30.1 -40.1 -43.0 27 0.3 NW 32 41 17 22 1009.5 1008.3 -
29/04:12pm -38.5 -48.6 -50.1 29 0.1 NW 32 41 17 22 1009.4 1008.2 -
29/04:11pm -27.5 -37.7 -40.3 29 0.4 NW 33 41 18 22 1009.4 1008.2 -
29/04:10pm -40.9 -51.2 -52.2 29 0.1 NW 33 41 18 22 1009.4 1008.2 -
29/04:09pm -49.0 -59.3 -59.1 30 0.0 NW 33 41 18 22 1009.4 1008.2 -
29/04:08pm -41.7 -52.0 -52.6 30 0.1 NW 33 43 18 23 1009.4 1008.2 -
29/04:06pm -47.7 -58.0 -58.0 30 0.0 NW 33 43 18 23 1009.4 1008.2 -
29/04:03pm -40.5 -50.8 -51.5 30 0.1 NW 33 43 18 23 1009.4 1008.2 -
29/04:02pm -34.1 -44.3 -45.9 29 0.2 NW 33 43 18 23 1009.4 1008.2 -
29/04:00pm -49.7 -60.0 -59.5 31 0.0 NW 33 43 18 23 1009.4 1008.2 -
29/03:56pm -40.2 -50.5 -51.0 31 0.1 NW 33 41 18 22 1009.4 1008.2 -
29/03:55pm -45.2 -55.5 -55.5 31 0.1 NW 33 43 18 23 1009.2 1008.0 -
29/03:54pm -37.9 -48.1 -48.9 31 0.1 NW 33 43 18 23 1009.2 1008.0 -
29/03:53pm -49.5 -59.8 -59.3 31 0.0 NW 33 43 18 23 1009.3 1008.1 -
29/03:50pm -40.8 -51.1 -51.5 31 0.1 NW 33 43 18 23 1009.3 1008.1 -
29/03:49pm -29.2 -39.4 -41.2 30 0.3 NW 33 43 18 23 1009.3 1008.1 -
29/03:45pm -44.8 -54.9 -55.1 31 0.1 NW 32 43 17 23 1009.4 1008.2 -
29/03:39pm -38.1 -48.2 -49.1 31 0.1 NW 32 41 17 22 1009.2 1008.0 -
29/03:30pm -43.9 -54.0 -54.3 31 0.1 NW 32 44 17 24 1009.2 1008.0 -
29/03:27pm -45.8 -56.1 -56.0 31 0.1 NW 33 46 18 25 1009.2 1008.0 -
29/03:22pm -40.7 -51.3 -50.9 33 0.1 NW 35 46 19 25 1009.4 1008.2 -
29/03:21pm -33.5 -43.7 -44.4 33 0.2 NW 33 46 18 25 1009.1 1007.9 -
29/03:20pm -43.8 -54.1 -53.4 34 0.1 NW 33 46 18 25 1009.2 1008.0 -
29/03:19pm -32.0 -42.2 -42.8 34 0.2 NW 33 46 18 25 1009.4 1008.2 -
29/03:17pm -49.3 -59.6 -58.2 35 0.0 NW 33 43 18 23 1009.3 1008.1 -
29/03:11pm -30.7 -40.7 -42.5 31 0.3 NW 32 41 17 22 1009.2 1008.0 -
29/03:09pm -22.4 -32.4 -34.5 32 0.6 NW 32 41 17 22 1009.2 1008.0 -
29/03:08pm -40.5 -50.6 -51.0 32 0.1 NW 32 41 17 22 1009.2 1008.0 -
29/03:07pm -28.4 -38.4 -40.2 31 0.4 NW 32 41 17 22 1009.2 1008.0 -
29/03:06pm -20.8 -30.8 -33.1 32 0.7 NNW 32 41 17 22 1009.2 1008.0 -
29/03:04pm -41.4 -51.7 -51.3 34 0.1 NNW 33 43 18 23 1009.2 1008.0 -
29/03:02pm -34.0 -44.0 -44.3 35 0.2 NW 32 43 17 23 1009.2 1008.0 -
29/03:01pm -18.8 -28.7 -31.3 32 0.9 NW 32 43 17 23 1009.3 1008.1 -
29/03:00pm -35.2 -45.2 -46.2 32 0.2 NW 32 43 17 23 1009.3 1008.1 -
29/02:58pm -30.7 -40.7 -41.9 33 0.3 NW 32 43 17 23 1009.2 1008.0 -
29/02:57pm -22.0 -32.0 -33.9 33 0.7 NW 32 43 17 23 1009.2 1008.0 -
29/02:52pm -44.3 -53.6 -54.7 31 0.1 NW 28 43 15 23 1009.3 1008.1 -
29/02:50pm -36.0 -45.3 -47.0 32 0.2 NW 28 43 15 23 1009.2 1008.0 -
29/02:49pm -41.8 -51.1 -52.4 31 0.1 NW 28 39 15 21 1009.3 1008.1 -
29/02:48pm -28.7 -38.0 -42.1 26 0.4 NW 28 39 15 21 1009.2 1008.0 -
29/02:47pm -34.5 -43.8 -46.2 30 0.2 NW 28 39 15 21 1009.2 1008.0 -
29/02:46pm -48.3 -57.6 -58.5 30 0.0 NW 28 39 15 21 1009.2 1008.0 -
29/02:43pm -36.4 -46.5 -48.2 29 0.2 NW 32 48 17 26 1009.2 1008.0 -
29/02:42pm -25.9 -35.9 -38.9 29 0.5 NW 32 48 17 26 1009.2 1008.0 -
29/02:41pm -42.1 -52.2 -53.3 29 0.1 NW 32 48 17 26 1009.1 1007.9 -
29/02:40pm -18.2 -28.1 -31.8 29 1.0 NW 32 48 17 26 1009.2 1008.0 -
29/02:38pm -24.5 -34.5 -37.7 28 0.6 NW 32 48 17 26 1009.2 1008.0 -
29/02:37pm -48.1 -58.2 -58.6 29 0.0 NW 32 48 17 26 1009.2 1008.0 -
29/02:36pm -14.0 -23.9 -28.5 28 1.4 NW 32 48 17 26 1009.2 1008.0 -
29/02:35pm -23.7 -33.7 -37.0 28 0.6 NW 32 48 17 26 1009.1 1007.9 -
29/02:34pm -48.6 -58.7 -59.0 29 0.0 NW 32 44 17 24 1009.1 1007.9 -
29/02:30pm -42.1 -52.2 -53.6 28 0.1 NW 32 41 17 22 1009.3 1008.1 -
29/02:28pm -38.2 -48.3 -50.1 28 0.1 NW 32 41 17 22 1009.3 1008.1 -
29/02:27pm -25.7 -35.3 -39.1 27 0.5 NW 30 41 16 22 1009.2 1008.0 -
29/02:26pm -49.3 - -40.1 - - NW 30 41 16 22 1009.2 1008.0 -
29/02:25pm -26.0 -35.6 -40.1 25 0.5 NW 30 39 16 21 1009.2 1008.0 -
29/02:24pm -33.7 -43.4 -46.8 26 0.2 NW 30 39 16 21 1009.2 1008.0 -
29/02:23pm -22.8 -32.4 -37.3 25 0.7 NW 30 41 16 22 1009.3 1008.1 -
29/02:22pm -43.6 -53.3 -55.5 26 0.1 NW 30 41 16 22 1009.0 1007.8 -
29/02:21pm -17.8 -27.0 -32.6 26 1.1 NW 28 41 15 22 1009.1 1007.9 -
29/02:18pm -24.3 -33.5 -38.2 27 0.6 NW 28 41 15 22 1009.1 1007.9 -
29/02:17pm -9.4 -18.5 -24.9 27 2.1 NW 28 41 15 22 1009.1 1007.9 -
29/02:15pm -21.3 -30.9 -36.4 24 0.8 NW 30 41 16 22 1009.1 1007.9 -
29/02:13pm -29.3 -38.6 -43.3 25 0.4 NW 28 41 15 22 1009.0 1007.8 -
29/02:12pm -38.3 -47.6 -51.2 25 0.1 NW 28 41 15 22 1009.1 1007.9 -
29/02:11pm -27.7 -37.0 -42.0 24 0.5 NW 28 41 15 22 1009.2 1008.0 -
29/02:10pm -22.3 -31.5 -37.3 24 0.8 NW 28 41 15 22 1009.1 1007.9 -
29/02:09pm -28.8 -37.7 -42.9 25 0.4 NW 26 41 14 22 1009.2 1008.0 -
29/02:08pm -16.7 -25.1 -32.4 24 1.2 NW 24 41 13 22 1009.1 1007.9 -
29/02:06pm -24.0 -31.7 -40.0 21 0.7 NW 20 37 11 20 1009.1 1007.9 -
29/02:05pm -43.3 -51.1 -57.0 21 0.1 NW 20 37 11 20 1009.2 1008.0 -
29/02:01pm -37.7 -45.3 -54.6 16 0.2 NW 19 28 10 15 1009.1 1007.9 -
29/02:00pm -45.3 - -40.9 - - NW 19 32 10 17 1009.1 1007.9 -
29/01:59pm -21.3 -28.9 -40.9 15 1.0 NW 19 32 10 17 1009.1 1007.9 -
29/01:57pm -36.8 -44.6 -54.4 15 0.2 NW 20 32 11 17 1009.2 1008.0 -
29/01:55pm -17.4 -25.5 -37.7 15 1.3 NW 22 32 12 17 1009.2 1008.0 -
29/01:50pm -30.2 -38.0 -48.9 15 0.4 W 20 32 11 17 1009.2 1008.0 -
29/01:48pm -37.5 -45.3 -54.4 16 0.2 W 20 32 11 17 1009.2 1008.0 -
29/01:45pm -23.4 -31.2 -42.7 15 0.8 W 20 32 11 17 1009.3 1008.1 -
29/01:43pm -31.9 -39.7 -49.7 16 0.3 W 20 32 11 17 1009.4 1008.2 -
29/01:41pm -21.5 -29.6 -41.1 15 0.9 W 22 32 12 17 1009.4 1008.2 -
29/01:40pm -49.8 - -46.3 - - W 22 30 12 16 1009.4 1008.2 -
29/01:38pm -28.3 -36.1 -46.7 16 0.5 W 20 30 11 16 1009.4 1008.2 -
29/01:37pm -41.7 -49.5 -57.9 16 0.1 WSW 20 30 11 16 1009.5 1008.3 -
29/01:36pm -33.0 -40.8 -51.2 15 0.3 WSW 20 30 11 16 1009.5 1008.3 -
29/01:34pm -49.8 -58.0 -51.8 79 0.0 WSW 22 30 12 16 1009.5 1008.3 -
29/01:33pm -33.7 -41.9 -51.8 15 0.3 WSW 22 30 12 16 1009.5 1008.3 -
29/01:32pm -27.7 -35.8 -46.9 14 0.5 WSW 22 30 12 16 1009.5 1008.3 -
29/01:30pm -40.8 -49.0 -57.2 16 0.1 SW 22 30 12 16 1009.5 1008.3 -
29/01:00pm - - - - - W 20 30 11 16 1009.9 1008.7 -
29/12:54pm -32.4 -40.2 -50.2 15 0.3 W 20 30 11 16 1009.9 1008.7 -
29/12:53pm -23.3 -30.9 -42.6 15 0.8 W 19 30 10 16 1009.9 1008.7 -
29/12:52pm -43.4 -50.6 -59.4 16 0.1 W 17 30 9 16 1009.9 1008.7 -
29/12:50pm -36.2 -43.0 -53.3 16 0.2 W 15 24 8 13 1010.0 1008.8 -
29/12:48pm -49.0 -55.8 -49.7 92 0.0 W 15 24 8 13 1010.0 1008.8 -
29/12:45pm -31.8 -39.0 -49.7 15 0.4 W 17 28 9 15 1010.1 1009.0 -
29/12:43pm -48.3 -55.5 -57.0 36 0.0 W 17 28 9 15 1010.1 1009.0 -
29/12:42pm -40.6 -47.8 -57.0 16 0.1 W 17 28 9 15 1010.1 1009.0 -
29/12:41pm -34.2 -41.8 -51.7 15 0.3 W 19 28 10 15 1010.2 1009.1 -
29/12:33pm -48.9 -56.7 -59.0 30 0.0 W 20 28 11 15 1010.3 1009.2 -
29/12:30pm -43.5 -51.7 -59.0 17 0.1 W 22 28 12 15 1010.3 1009.2 -
29/12:29pm -49.4 - - - - WSW 22 28 12 15 1010.3 1009.2 -
29/12:07pm -42.5 -50.1 -58.6 16 0.1 W 19 28 10 15 1010.8 1009.6 -
29/12:00pm -48.7 -55.5 -59.5 28 0.0 NW 15 28 8 15 1010.9 1009.7 -
29/11:57am -40.9 -48.1 -57.8 15 0.1 NW 17 28 9 15 1010.9 1009.7 0.0
29/11:56am -48.3 -55.5 -59.1 28 0.0 WNW 17 28 9 15 1011.0 1009.8 0.0
29/11:55am -43.1 -50.3 -59.1 16 0.1 WNW 17 28 9 15 1011.0 1009.8 0.0
29/11:54am -35.8 -43.0 -53.0 16 0.2 NW 17 28 9 15 1011.0 1009.8 0.0
29/11:53am -42.7 -49.9 -58.8 16 0.1 NW 17 28 9 15 1011.0 1009.8 0.0
29/11:52am -28.5 -35.7 -46.9 15 0.5 NW 17 28 9 15 1011.0 1009.8 0.0
29/11:51am -36.6 -43.8 -53.7 16 0.2 NW 17 28 9 15 1011.1 1009.9 0.0
29/11:47am -42.8 -50.0 -58.9 16 0.1 NW 17 24 9 13 1011.0 1009.8 0.0
29/11:46am -31.9 -39.5 -49.2 17 0.3 NW 19 24 10 13 1011.1 1009.9 0.0
29/11:45am -19.4 -27.1 -38.7 16 1.1 NW 20 24 11 13 1011.1 1009.9 0.0
29/11:44am -41.9 -49.7 -57.6 17 0.1 NW 20 24 11 13 1011.1 1009.9 0.0
29/11:41am -20.5 -27.3 -39.7 16 1.0 W 15 32 8 17 1011.2 1010.0 0.0
29/11:40am -9.6 -16.3 -30.6 16 2.4 W 15 32 8 17 1011.1 1009.9 0.0
29/11:38am -33.0 -39.8 -49.6 18 0.3 W 15 26 8 14 1011.2 1010.0 0.0
29/11:37am -22.7 -29.5 -40.9 17 0.8 W 15 26 8 14 1011.3 1010.1 0.0
29/11:35am -31.0 -38.2 -47.9 18 0.4 W 17 26 9 14 1011.3 1010.1 0.0
29/11:34am -24.7 -31.9 -43.2 16 0.7 W 17 26 9 14 1011.3 1010.1 0.0
29/11:33am -35.4 -42.6 -51.6 18 0.2 W 17 26 9 14 1011.3 1010.1 0.0
29/11:31am -13.6 -20.7 -33.3 17 1.8 W 17 26 9 14 1011.3 1010.1 0.0
29/11:30am -48.5 - -43.4 - - W 17 26 9 14 1011.3 1010.1 0.0
29/11:28am -26.6 -33.0 -44.2 17 0.6 WNW 13 26 7 14 1011.3 1010.1 0.0
29/11:26am -14.9 -21.3 -34.4 17 1.6 NW 13 26 7 14 1011.3 1010.1 0.0
29/11:25am -32.9 -39.3 -49.5 18 0.3 NW 13 26 7 14 1011.4 1010.2 0.0
29/11:24am -41.4 -48.2 -56.7 18 0.1 NW 15 26 8 14 1011.4 1010.2 0.0
29/11:22am -17.9 -24.3 -36.3 18 1.2 NW 13 20 7 11 1011.4 1010.2 0.0
29/11:21am -34.2 -40.6 -50.1 19 0.3 NW 13 20 7 11 1011.5 1010.3 0.0
29/11:20am -43.3 -49.8 -57.9 19 0.1 NW 13 20 7 11 1011.4 1010.2 0.0
29/11:18am -36.7 -43.5 -52.2 19 0.2 NW 15 20 8 11 1011.4 1010.2 0.0
29/11:17am -30.4 -37.6 -46.9 18 0.4 WNW 17 20 9 11 1011.5 1010.3 0.0
29/11:16am -19.8 -27.0 -37.9 18 1.0 WNW 17 20 9 11 1011.5 1010.3 0.0
29/11:15am -43.6 -51.2 -58.6 18 0.1 WNW 19 20 10 11 1011.5 1010.3 0.0
29/11:14am 16.5 10.7 -8.6 17 9.0 W 15 24 8 13 1011.5 1010.3 0.0
29/11:13am 6.9 0.6 -15.7 18 6.0 WSW 15 24 8 13 1011.5 1010.3 0.0
29/11:11am 17.7 12.1 -6.9 18 9.3 W 15 24 8 13 1011.5 1010.3 0.0
29/11:10am 26.5 21.7 0.3 18 12.4 W 15 24 8 13 1011.5 1010.3 0.0
29/11:09am -17.4 -24.2 -35.9 18 1.3 W 15 24 8 13 1011.5 1010.3 0.0
29/11:08am 23.4 18.3 -2.2 18 11.2 W 15 24 8 13 1011.5 1010.3 0.0
29/11:07am 14.6 8.7 -9.4 18 8.3 W 15 20 8 11 1011.5 1010.3 0.0
29/11:06am 6.5 0.2 -16.1 18 5.9 WNW 15 22 8 12 1011.6 1010.4 0.0
29/11:05am -10.5 -17.2 -30.2 18 2.2 WNW 15 22 8 12 1011.5 1010.3 0.0
29/11:01am 6.5 -0.1 -15.4 19 5.8 NW 17 28 9 15 1011.6 1010.4 0.0
29/11:00am 34.6 30.8 7.6 19 15.1 NW 17 28 9 15 1011.6 1010.4 0.0
29/10:59am 40.8 38.4 12.6 19 17.4 NW 17 28 9 15 1011.6 1010.4 0.0
29/10:58am 22.3 16.8 -2.4 19 10.7 NW 17 28 9 15 1011.7 1010.5 0.0
29/10:57am 45.1 44.3 16.1 19 19.0 WNW 15 28 8 15 1011.6 1010.4 0.0
29/10:56am 20.0 14.6 -4.3 19 9.9 WNW 15 28 8 15 1011.6 1010.4 0.0
29/10:55am -28.4 -35.2 -44.7 20 0.5 WNW 15 28 8 15 1011.6 1010.4 0.0
29/10:54am 1.0 -5.4 -20.0 19 4.6 WNW 15 28 8 15 1011.6 1010.4 0.0
29/10:52am 6.2 0.4 -15.1 20 5.7 WNW 13 20 7 11 1011.6 1010.4 0.0
29/10:50am -3.5 -9.7 -23.7 19 3.5 WNW 13 20 7 11 1011.7 1010.5 0.0
29/10:48am -23.1 -29.5 -40.2 19 0.8 WNW 13 20 7 11 1011.7 1010.5 0.0
29/10:46am -16.8 -23.2 -35.4 18 1.4 W 13 20 7 11 1011.7 1010.5 0.0
29/10:44am 0.0 -6.1 -20.8 19 4.4 WNW 13 20 7 11 1011.7 1010.5 0.0
29/10:43am -30.8 -37.2 -46.7 20 0.4 W 13 20 7 11 1011.7 1010.5 0.0
29/10:42am -9.7 -16.0 -28.4 20 2.3 W 13 20 7 11 1011.8 1010.6 0.0
29/10:41am -35.5 -41.9 -50.3 21 0.2 W 13 22 7 12 1011.7 1010.5 0.0
29/10:40am -3.2 -9.3 -22.9 20 3.5 W 13 24 7 13 1011.8 1010.6 0.0
29/10:39am -29.1 -35.5 -44.4 22 0.4 W 13 24 7 13 1011.8 1010.6 0.0
29/10:38am -0.2 -6.6 -19.8 21 4.2 W 15 24 8 13 1011.8 1010.6 0.0
29/10:37am 7.8 1.7 -13.7 20 6.1 W 15 24 8 13 1011.8 1010.6 0.0
29/10:36am -30.8 -38.0 -45.9 21 0.3 W 17 24 9 13 1011.8 1010.6 0.0
29/10:32am 15.9 9.9 -7.0 20 8.5 W 17 24 9 13 1011.9 1010.7 0.0
29/10:31am 2.9 -3.8 -17.8 20 5.1 WSW 17 24 9 13 1011.8 1010.6 0.0
29/10:30am 9.3 2.8 -12.5 20 6.5 WSW 17 20 9 11 1011.8 1010.6 0.0
29/10:29am 31.4 - 5.8 20 13.7 - - - - - 1011.9 1010.7 0.0
29/10:28am 26.4 - 1.7 20 11.9 - - - - - 1011.9 1010.7 0.0
29/10:12am 17.4 11.8 -6.4 19 9.1 W 15 22 8 12 1012.1 1010.9 0.0
29/10:08am 7.0 1.2 -15.0 19 6.0 W 13 20 7 11 1012.1 1010.9 0.0
29/10:07am -4.9 -11.1 -24.9 19 3.2 W 13 20 7 11 1012.1 1010.9 0.0
29/10:05am -13.9 -20.2 -32.4 19 1.7 W 13 20 7 11 1012.1 1010.9 0.0
29/10:03am 20.3 15.0 -3.4 20 9.9 W 15 22 8 12 1012.1 1010.9 0.0
29/10:02am -12.0 -18.7 -30.8 19 1.9 W 15 22 8 12 1012.1 1010.9 0.0
29/10:01am 13.2 7.3 -9.9 19 7.8 W 15 22 8 12 1012.1 1010.9 0.0
29/10:00am -3.9 -10.5 -24.1 19 3.4 W 15 22 8 12 1012.1 1010.9 0.0
29/09:59am 18.5 13.0 -5.5 19 9.4 W 15 22 8 12 1012.1 1010.9 0.0
29/09:58am 6.2 -0.4 -15.7 19 5.8 W 17 22 9 12 1012.2 1011.0 0.0
29/09:57am -2.0 -8.5 -21.9 20 3.8 W 15 22 8 12 1012.1 1010.9 0.0
29/09:54am 15.4 9.6 -8.1 19 8.4 W 15 22 8 12 1012.2 1011.0 0.0
29/09:53am 1.6 -4.8 -19.5 19 4.8 W 15 22 8 12 1012.2 1011.0 0.0
29/09:52am 13.4 7.5 -9.7 19 7.8 W 15 22 8 12 1012.2 1011.0 0.0
29/09:51am -2.8 -9.3 -22.6 20 3.6 W 15 22 8 12 1012.2 1011.0 0.0
29/09:50am 11.1 5.1 -11.6 19 7.1 W 15 22 8 12 1012.2 1011.0 0.0
29/09:49am 20.3 15.1 -2.7 21 9.7 W 15 22 8 12 1012.2 1011.0 0.0
29/09:48am 5.9 -0.3 -14.7 21 5.5 W 15 22 8 12 1012.2 1011.0 0.0
29/09:47am 13.3 7.5 -8.5 21 7.6 WNW 15 22 8 12 1012.2 1011.0 0.0
29/09:46am -8.1 -14.7 -27.0 20 2.6 WNW 15 22 8 12 1012.2 1011.0 0.0
29/09:43am 21.3 16.4 -3.2 19 10.4 WNW 13 19 7 10 1012.2 1011.0 0.0
29/09:42am 13.0 7.5 -9.4 20 7.6 WNW 13 19 7 10 1012.3 1011.1 0.0
29/09:38am -10.2 -16.1 -29.3 19 2.2 WNW 11 19 6 10 1012.3 1011.1 0.0
29/09:37am -29.3 -35.4 -46.0 18 0.4 W 11 19 6 10 1012.3 1011.1 0.0
29/09:32am -17.0 -23.0 -34.5 20 1.3 W 11 17 6 9 1012.4 1011.2 0.0
29/09:30am 22.3 18.0 -1.7 20 10.5 W 11 15 6 8 1012.4 1011.2 0.0
29/09:29am 13.1 8.0 -9.3 20 7.6 W 11 15 6 8 1012.4 1011.2 0.0
29/09:28am 4.6 -1.0 -19.0 16 5.9 W 11 15 6 8 1012.4 1011.2 0.0
29/09:27am 14.8 9.8 -8.6 19 8.3 W 11 15 6 8 1012.4 1011.2 0.0
29/09:26am 5.0 -0.1 -16.1 20 5.7 W 9 15 5 8 1012.4 1011.2 0.0
29/09:25am 18.4 14.2 -4.3 21 9.1 W 9 15 5 8 1012.4 1011.2 0.0
29/09:24am -2.6 -8.0 -21.9 21 3.6 W 9 15 5 8 1012.4 1011.2 0.0
29/09:23am 13.3 8.7 -7.9 22 7.5 W 9 13 5 7 1012.4 1011.2 0.0
29/09:22am -9.8 -15.3 -27.4 22 2.2 W 9 13 5 7 1012.4 1011.2 0.0
29/09:21am 16.7 12.3 -6.3 20 8.7 W 9 13 5 7 1012.4 1011.2 0.0
29/09:18am 22.4 18.8 -2.3 19 10.7 W 7 11 4 6 1012.4 1011.2 0.0
29/09:17am 4.7 0.0 -15.7 21 5.5 W 7 11 4 6 1012.4 1011.2 0.0
29/09:13am 21.7 19.0 0.3 24 9.7 W 4 9 2 5 1012.4 1011.2 0.0
29/09:12am 1.7 -2.5 -16.2 25 4.4 WNW 4 9 2 5 1012.4 1011.2 0.0
29/09:10am 23.2 20.8 2.1 25 10.0 WNW 4 9 2 5 1012.4 1011.2 0.0
29/09:09am 3.9 -0.2 -13.8 26 5.0 WNW 4 11 2 6 1012.4 1011.2 0.0
29/09:06am 17.8 14.5 -1.4 27 8.2 NW 6 13 3 7 1012.4 1011.2 0.0
29/09:05am -11.5 -16.4 -26.7 27 1.8 NW 6 13 3 7 1012.4 1011.2 0.0
29/09:04am 10.6 6.6 -7.6 27 6.2 NW 6 13 3 7 1012.4 1011.2 0.0
29/09:02am 16.2 12.6 -1.8 29 7.5 NW 7 13 4 7 1012.4 1011.2 0.0
29/09:00am 10.7 6.6 -7.0 28 6.1 NW 7 13 4 7 1012.5 1011.3 0.0
29/08:58am 13.1 9.1 -5.4 27 6.9 WNW 7 13 4 7 1012.5 1011.3 0.0
29/08:57am 23.0 20.3 3.5 28 9.5 WNW 7 11 4 6 1012.5 1011.3 0.0
29/08:56am -1.0 -5.7 -15.9 31 3.5 WNW 7 11 4 6 1012.5 1011.3 0.0
29/08:54am 29.3 28.3 10.9 32 10.6 WNW 7 11 4 6 1012.4 1011.2 0.0
29/08:53am -2.2 -7.0 -16.3 33 3.1 WNW 7 11 4 6 1012.4 1011.2 0.0
29/08:52am 28.5 27.4 10.7 33 10.2 WNW 7 11 4 6 1012.4 1011.2 0.0
29/08:51am 0.8 -3.8 -13.6 33 3.7 WNW 7 11 4 6 1012.4 1011.2 0.0
29/08:50am 26.0 24.3 8.5 33 9.5 NW 7 11 4 6 1012.4 1011.2 0.0
29/08:49am -8.6 -13.6 -21.9 33 2.0 NW 7 11 4 6 1012.4 1011.2 0.0
29/08:47am 17.3 14.1 0.9 33 7.3 NW 7 11 4 6 1012.5 1011.3 0.0
29/08:46am 7.8 3.8 -7.4 33 5.0 NW 6 11 3 6 1012.5 1011.3 0.0
29/08:44am 16.3 13.2 0.0 33 7.0 NW 6 11 3 6 1012.5 1011.3 0.0
29/08:43am 0.0 -4.1 -14.7 32 3.6 NW 4 11 2 6 1012.5 1011.3 0.0
29/08:42am 26.9 26.0 9.3 33 9.8 NW 4 11 2 6 1012.5 1011.3 0.0
29/08:41am 17.0 14.5 1.4 35 7.0 NW 4 11 2 6 1012.5 1011.3 0.0
29/08:38am 24.6 24.1 9.3 38 8.4 NW 2 7 1 4 1012.4 1011.2 0.0
29/08:37am 14.5 11.9 0.7 39 5.9 NW 4 7 2 4 1012.4 1011.2 0.0
29/08:36am 33.3 35.1 17.5 39 10.2 NW 4 7 2 4 1012.4 1011.2 0.0
29/08:35am 21.5 20.0 7.0 39 7.5 NW 4 7 2 4 1012.4 1011.2 0.0
29/08:31am 14.5 11.4 0.4 38 6.0 NNW 6 7 3 4 1012.4 1011.2 0.0
29/08:30am 27.1 26.6 12.0 39 8.8 N 6 7 3 4 1012.4 1011.2 0.0
29/08:27am 30.5 31.0 15.0 39 9.6 N 6 7 3 4 1012.4 1011.2 0.0
29/08:25am -5.1 -9.3 -16.6 40 2.3 N 4 7 2 4 1012.4 1011.2 0.0
29/08:24am 2.8 -1.3 -8.8 42 3.6 N 6 7 3 4 1012.4 1011.2 0.0
29/08:23am -15.1 -20.0 -25.1 42 1.0 N 6 7 3 4 1012.4 1011.2 0.0
29/08:22am -25.2 -30.2 -34.1 43 0.4 N 6 7 3 4 1012.4 1011.2 0.0
29/08:21am -4.6 -9.1 -15.5 42 2.3 N 6 7 3 4 1012.4 1011.2 0.0
29/08:20am 19.8 17.9 6.5 42 6.7 N 6 7 3 4 1012.4 1011.2 0.0
29/08:19am 4.1 0.2 -6.5 46 3.4 N 6 7 3 4 1012.4 1011.2 0.0
29/08:18am -1.0 -5.3 -11.1 46 2.7 N 6 7 3 4 1012.4 1011.2 0.0
29/08:17am -14.9 -19.7 -23.9 46 0.9 N 6 7 3 4 1012.4 1011.2 0.0
29/08:15am -4.0 -8.6 -14.1 45 2.2 N 7 9 4 5 1012.4 1011.2 0.0
29/08:13am 5.6 1.6 -5.7 44 3.8 N 7 9 4 5 1012.4 1011.2 0.0
29/08:12am -11.7 -16.7 -21.2 45 1.2 N 7 9 4 5 1012.4 1011.2 0.0
29/08:11am -1.7 -6.2 -11.2 48 2.4 N 7 9 4 5 1012.4 1011.2 0.0
29/08:08am -10.2 -15.1 -18.6 50 1.3 N 7 11 4 6 1012.4 1011.2 0.0
29/08:07am -26.6 -31.8 -34.1 49 0.3 N 7 11 4 6 1012.4 1011.2 0.0
29/08:06am -17.8 -22.9 -25.9 49 0.7 N 7 11 4 6 1012.4 1011.2 0.0
29/08:05am 11.8 8.8 1.7 50 4.3 N 7 11 4 6 1012.4 1011.2 0.0
29/08:03am 6.5 2.8 -2.9 51 3.4 N 7 11 4 6 1012.3 1011.1 0.0
29/08:02am -11.7 -16.6 -19.8 51 1.1 N 7 11 4 6 1012.3 1011.1 0.0
29/08:01am 4.6 0.8 -3.9 54 2.9 N 7 11 4 6 1012.3 1011.1 0.0
29/08:00am -10.5 -15.3 -17.8 55 1.1 N 7 9 4 5 1012.3 1011.1 0.0
29/07:59am -10.2 -15.0 -17.7 54 1.1 N 7 9 4 5 1012.3 1011.1 0.0
29/07:57am 2.6 -1.4 -5.5 55 2.8 N 7 9 4 5 1012.4 1011.2 0.0
29/07:55am 11.1 8.3 3.2 58 3.5 N 7 9 4 5 1012.4 1011.2 0.0
29/07:54am -21.2 -26.3 -27.2 58 0.3 N 7 9 4 5 1012.4 1011.2 0.0
29/07:52am 8.3 5.1 0.5 58 3.1 N 7 9 4 5 1012.4 1011.2 0.0
29/07:50am 1.5 -2.5 -5.4 60 2.3 N 7 9 4 5 1012.4 1011.2 0.0
29/07:49am -16.3 -21.3 -21.7 63 0.5 N 7 9 4 5 1012.4 1011.2 0.0
29/07:47am 3.2 -0.5 -2.9 64 2.1 N 7 9 4 5 1012.4 1011.2 0.0
29/07:46am -7.5 -12.1 -13.3 63 1.1 N 7 9 4 5 1012.4 1011.2 0.0
29/07:45am -37.6 -42.9 -42.0 63 0.0 N 7 9 4 5 1012.4 1011.2 0.0
29/07:44am 2.5 -1.3 -3.6 64 2.1 N 7 9 4 5 1012.4 1011.2 0.0
29/07:43am -6.8 -11.3 -12.4 64 1.1 N 7 9 4 5 1012.4 1011.2 0.0
29/07:42am -12.7 -17.5 -17.9 65 0.6 NNE 7 9 4 5 1012.4 1011.2 0.0
29/07:41am -28.3 -33.5 -32.5 67 0.1 NNE 7 9 4 5 1012.4 1011.2 0.0
29/07:40am -34.2 -39.5 -38.3 66 0.0 NNE 7 9 4 5 1012.4 1011.2 0.0
29/07:38am -20.7 -25.8 -24.6 71 0.2 NNE 7 9 4 5 1012.4 1011.2 0.0
29/07:37am -14.2 -19.1 -18.8 68 0.5 NNE 7 9 4 5 1012.4 1011.2 0.0
29/07:36am -25.9 -31.1 -30.3 67 0.1 NNE 7 9 4 5 1012.4 1011.2 0.0
29/07:35am -2.8 -7.0 -7.5 70 1.2 NNE 7 9 4 5 1012.4 1011.2 0.0
29/07:34am -17.4 -22.4 -21.5 70 0.3 NNE 7 9 4 5 1012.3 1011.1 0.0
29/07:33am -31.4 -36.6 -35.0 71 0.0 NNE 7 9 4 5 1012.3 1011.1 0.0
29/07:32am -9.5 -14.1 -13.6 72 0.6 NNE 7 11 4 6 1012.3 1011.1 0.0
29/07:31am -46.9 -52.2 -49.8 72 0.0 NNE 7 11 4 6 1012.3 1011.1 0.0
29/07:30am -8.3 -12.8 -12.3 73 0.7 N 7 11 4 6 1012.4 1011.2 0.0
29/07:29am -47.6 -52.9 -50.3 74 0.0 N 7 11 4 6 1012.4 1011.2 0.0
29/07:28am -29.6 -34.8 -32.9 73 0.0 N 7 11 4 6 1012.4 1011.2 0.0
29/07:27am 0.2 -3.7 -4.2 72 1.5 N 7 11 4 6 1012.4 1011.2 0.0
29/07:25am -18.0 -23.0 -21.5 74 0.2 N 7 11 4 6 1012.4 1011.2 0.0
29/07:24am 5.1 1.9 1.0 75 1.6 N 7 11 4 6 1012.5 1011.3 0.0
29/07:23am -26.6 -32.1 -29.7 75 0.0 N 9 11 5 6 1012.4 1011.2 0.0
29/07:22am -11.2 -15.9 -14.7 75 0.4 N 7 9 4 5 1012.4 1011.2 0.0
29/07:21am -4.8 -9.4 -8.4 76 0.8 N 9 9 5 5 1012.4 1011.2 0.0
29/07:20am 4.7 1.1 0.8 76 1.5 N 9 9 5 5 1012.4 1011.2 0.0
29/07:19am -23.8 -29.3 -26.7 77 0.0 N 9 9 5 5 1012.4 1011.2 0.0
29/07:18am 0.1 -4.0 -3.4 77 1.2 N 9 9 5 5 1012.4 1011.2 0.0
29/07:17am -31.2 -36.8 -33.7 79 0.0 N 9 9 5 5 1012.3 1011.1 0.0
29/07:16am -9.5 -14.4 -12.6 78 0.4 N 9 9 5 5 1012.4 1011.2 0.0
29/07:14am 14.4 13.3 10.8 79 1.9 N 7 9 4 5 1012.4 1011.2 0.0
29/07:13am 7.7 5.2 4.5 80 1.4 NNE 7 9 4 5 1012.4 1011.2 0.0
29/07:12am -8.9 -13.2 -11.7 80 0.4 NNE 6 9 3 5 1012.4 1011.2 0.0
29/07:11am 11.8 10.3 8.5 80 1.6 NE 6 9 3 5 1012.4 1011.2 0.0
29/07:10am 22.1 24.1 18.7 81 2.2 ENE 6 9 3 5 1012.5 1011.3 0.0
29/07:09am -3.4 -6.9 -6.2 81 0.7 E 4 9 2 5 1012.5 1011.3 0.0
29/07:08am -29.5 -34.1 -31.7 81 0.0 ESE 4 9 2 5 1012.5 1011.3 0.0
29/07:07am 6.2 4.4 3.2 81 1.3 SE 2 9 1 5 1012.5 1011.3 0.0
29/07:06am -42.9 -47.2 -44.7 82 0.0 SSE 2 9 1 5 1012.5 1011.3 0.0
29/07:05am -9.2 -12.4 -11.7 82 0.3 CALM 0 9 0 5 1012.5 1011.3 0.0
29/07:04am -26.7 -30.5 -28.7 83 -0.1 CALM 0 0 0 0 1012.5 1011.3 0.0
29/07:03am -17.8 -21.4 -20.0 83 0.0 CALM 0 0 0 0 1012.5 1011.3 0.0
29/07:02am -9.0 -12.1 -11.2 84 0.2 CALM 0 0 0 0 1012.5 1011.3 0.0
29/07:01am -25.5 -29.3 -27.4 84 -0.1 CALM 0 0 0 0 1012.4 1011.2 0.0
29/07:00am -30.6 -34.5 -32.3 85 -0.1 CALM 0 0 0 0 1012.4 1011.2 0.0
29/06:58am -6.3 -9.2 -8.4 85 0.3 CALM 0 0 0 0 1012.4 1011.2 0.0
29/06:57am 3.3 1.5 1.0 85 0.9 CALM 0 0 0 0 1012.5 1011.3 0.0
29/06:55am -11.3 -14.6 -13.2 86 0.1 CALM 0 0 0 0 1012.5 1011.3 0.0
29/06:54am 10.4 10.0 8.2 86 1.1 CALM 0 0 0 0 1012.4 1011.2 0.0
29/06:53am 1.4 -0.7 -0.7 86 0.8 CALM 0 0 0 0 1012.4 1011.2 0.0
29/06:52am -7.6 -10.6 -9.4 87 0.2 CALM 0 6 0 3 1012.4 1011.2 0.0
29/06:51am -31.9 -35.8 -33.3 87 -0.1 CALM 0 6 0 3 1012.4 1011.2 0.0
29/06:50am -26.4 -30.6 -27.9 87 -0.1 SSE 2 6 1 3 1012.5 1011.3 0.0
29/06:48am -44.0 -48.3 -45.3 87 0.0 SSE 2 6 1 3 1012.5 1011.3 0.0
29/06:47am -31.8 -36.1 -33.1 88 -0.1 SSE 2 6 1 3 1012.5 1011.3 0.0
29/06:46am -18.9 -22.9 -20.4 88 -0.1 SSE 2 6 1 3 1012.5 1011.3 0.0
29/06:45am 2.9 0.7 1.1 88 0.7 SSE 2 6 1 3 1012.5 1011.3 0.0
29/06:44am -33.6 -38.3 -34.9 88 -0.1 SSE 4 6 2 3 1012.5 1011.3 0.0
29/06:43am -45.4 -50.1 -46.5 89 0.0 SSE 4 6 2 3 1012.5 1011.3 0.0
29/06:41am -22.0 -26.4 -23.3 89 -0.1 SSE 4 7 2 4 1012.5 1011.3 0.0
29/06:40am -27.8 -32.8 -29.0 89 -0.1 SSE 6 7 3 4 1012.5 1011.3 0.0
29/06:38am -46.8 -51.9 -47.7 91 0.0 SSE 6 7 3 4 1012.5 1011.3 0.0
29/06:35am -38.7 -43.8 -39.5 92 -0.1 SSE 6 7 3 4 1012.5 1011.3 0.0
29/06:34am -0.1 -3.4 -1.2 92 0.4 SSE 6 7 3 4 1012.5 1011.3 0.0
29/06:33am -6.6 -10.6 -7.7 92 0.1 SSE 6 7 3 4 1012.5 1011.3 0.0
29/06:32am -12.8 -17.2 -13.8 92 -0.1 SSE 6 7 3 4 1012.5 1011.3 0.0
29/06:31am -46.4 -51.5 -47.0 94 0.0 SSE 6 7 3 4 1012.5 1011.3 0.0
29/06:30am -5.2 -9.1 -6.3 92 0.1 SSE 6 7 3 4 1012.5 1011.3 0.0
29/06:29am -11.5 -15.9 -12.4 93 -0.1 SSE 6 7 3 4 1012.4 1011.2 0.0
29/06:27am -20.0 -24.8 -20.8 93 -0.2 SSE 6 7 3 4 1012.5 1011.3 0.0
29/06:26am -33.1 -38.1 -33.8 93 -0.1 SSE 6 7 3 4 1012.5 1011.3 0.0
29/06:25am -21.4 -26.2 -22.1 94 -0.2 SSE 6 7 3 4 1012.5 1011.3 0.0
29/06:23am -15.2 -19.8 -15.9 94 -0.2 SSE 6 7 3 4 1012.5 1011.3 0.0
29/06:21am -31.8 -36.8 -32.4 94 -0.1 SSE 6 7 3 4 1012.5 1011.3 0.0
29/06:20am -39.3 -44.4 -39.9 94 -0.1 SSE 6 7 3 4 1012.5 1011.3 0.0
29/06:19am -30.3 -35.3 -30.9 94 -0.1 SSE 6 7 3 4 1012.5 1011.3 0.0
29/06:18am -49.8 -54.9 -50.3 94 0.0 SSE 6 7 3 4 1012.6 1011.4 0.0
29/06:17am -17.5 -22.2 -18.2 94 -0.2 SSE 6 9 3 5 1012.6 1011.4 0.0
29/06:15am -45.0 -50.3 -45.6 94 0.0 SSE 7 9 4 5 1012.6 1011.4 0.0
29/06:14am -12.1 -16.7 -12.9 94 -0.1 SSE 7 9 4 5 1012.7 1011.5 0.0
29/06:13am -48.6 -53.9 -49.1 95 0.0 SSE 7 11 4 6 1012.7 1011.5 0.0
29/06:12am -19.4 -24.3 -20.1 94 -0.2 SSE 7 11 4 6 1012.7 1011.5 0.0
29/06:10am -49.6 -55.3 -50.1 94 0.0 SSE 9 13 5 7 1012.7 1011.5 0.0
29/06:09am -8.1 -12.8 -8.9 94 -0.1 SSE 9 13 5 7 1012.7 1011.5 0.0
29/06:08am 1.3 -2.3 0.4 94 0.3 SSE 9 13 5 7 1012.7 1011.5 0.0
29/06:07am -3.9 -8.2 -4.7 94 0.1 SSE 9 13 5 7 1012.7 1011.5 0.0
29/06:05am -34.5 -40.5 -35.1 94 -0.1 SSE 11 13 6 7 1012.6 1011.4 0.0
29/06:03am -15.1 -20.2 -15.8 94 -0.2 SSE 9 13 5 7 1012.6 1011.4 0.0
29/06:02am -30.9 -36.5 -31.5 94 -0.1 SSE 9 13 5 7 1012.6 1011.4 0.0
29/06:01am -2.7 -6.9 -3.5 94 0.1 SSE 9 13 5 7 1012.6 1011.4 0.0
29/06:00am -49.9 -55.6 -50.4 94 0.0 SE 9 13 5 7 1012.6 1011.4 0.0
29/05:58am -16.6 -21.8 -17.3 94 -0.2 SE 9 11 5 6 1012.5 1011.3 0.0
29/05:57am -32.4 -38.0 -33.0 94 -0.1 SE 9 11 5 6 1012.5 1011.3 0.0
29/05:56am -47.0 -52.7 -47.5 95 0.0 SE 9 9 5 5 1012.5 1011.3 0.0
29/05:54am -34.5 -40.1 -35.1 94 -0.1 SE 9 13 5 7 1012.5 1011.3 0.0
29/05:53am -23.8 -29.2 -24.5 94 -0.2 SE 9 13 5 7 1012.5 1011.3 0.0
29/05:52am -48.5 -54.2 -49.0 95 0.0 SE 9 15 5 8 1012.5 1011.3 0.0
29/05:51am -17.2 -22.8 -17.9 94 -0.2 SE 11 15 6 8 1012.6 1011.4 0.0
29/05:49am -45.4 -51.5 -46.0 94 0.0 SE 11 15 6 8 1012.6 1011.4 0.0
29/05:48am -28.8 -34.7 -29.5 94 -0.1 SE 11 15 6 8 1012.6 1011.4 0.0
29/05:47am -46.7 -52.8 -47.2 95 0.0 SE 11 15 6 8 1012.6 1011.4 0.0
29/05:46am -6.7 -11.6 -7.5 94 0.0 SSE 11 15 6 8 1012.6 1011.4 0.0
29/05:45am -42.9 -48.9 -43.5 94 -0.1 SSE 11 15 6 8 1012.6 1011.4 0.0
29/05:44am -23.2 -29.0 -23.9 94 -0.2 SSE 11 15 6 8 1012.6 1011.4 0.0
29/05:43am -18.2 -23.5 -18.9 94 -0.2 SSE 9 15 5 8 1012.6 1011.4 0.0
29/05:39am -12.8 -17.8 -13.6 94 -0.1 SSE 9 11 5 6 1012.6 1011.4 0.0
29/05:37am -22.0 -27.4 -22.7 94 -0.2 SSE 9 13 5 7 1012.6 1011.4 0.0
29/05:36am -46.7 -52.4 -47.2 95 0.0 SSE 9 13 5 7 1012.6 1011.4 0.0
29/05:33am -21.0 -26.7 -21.7 94 -0.2 SSE 11 13 6 7 1012.6 1011.4 0.0
29/05:32am -29.0 -34.9 -29.7 94 -0.1 SSE 11 13 6 7 1012.6 1011.4 0.0
29/05:31am -43.1 -49.1 -43.7 94 -0.1 SSE 11 13 6 7 1012.6 1011.4 0.0
29/05:30am -27.6 -33.5 -28.3 94 -0.2 SSE 11 13 6 7 1012.7 1011.5 0.0
29/05:29am -11.0 -16.3 -11.8 94 -0.1 SSE 11 13 6 7 1012.7 1011.5 0.0
29/05:28am -5.4 -9.8 -6.2 94 0.0 SSE 9 13 5 7 1012.7 1011.5 0.0
29/05:25am -15.5 -20.6 -16.2 94 -0.2 SSE 9 13 5 7 1012.7 1011.5 0.0
29/05:24am -2.3 -6.4 -3.1 94 0.2 SSE 9 13 5 7 1012.6 1011.4 0.0
29/05:21am -44.5 -49.8 -45.1 94 -0.1 SSE 7 9 4 5 1012.5 1011.3 0.0
29/05:20am -26.5 -31.6 -27.2 94 -0.2 SSE 7 9 4 5 1012.5 1011.3 0.0
29/05:19am -9.9 -14.3 -10.7 94 -0.1 SSE 7 9 4 5 1012.5 1011.3 0.0
29/05:18am -47.6 -52.9 -48.1 95 0.0 SSE 7 9 4 5 1012.5 1011.3 0.0
29/05:17am -17.7 -22.6 -18.4 94 -0.2 SSE 7 9 4 5 1012.5 1011.3 0.0
29/05:16am -29.5 -34.7 -30.1 95 -0.1 SSE 7 11 4 6 1012.5 1011.3 0.0
29/05:14am -21.0 -26.0 -21.7 94 -0.2 SSE 7 11 4 6 1012.5 1011.3 0.0
29/05:13am -9.6 -14.4 -10.4 94 -0.1 SSE 9 11 5 6 1012.5 1011.3 0.0
29/05:12am -15.9 -21.1 -16.6 94 -0.2 SSE 9 11 5 6 1012.5 1011.3 0.0
29/05:11am -46.0 -51.7 -46.6 94 0.0 SSE 9 11 5 6 1012.5 1011.3 0.0
29/05:10am 0.8 -2.9 -0.1 94 0.3 SSE 9 11 5 6 1012.5 1011.3 0.0
29/05:08am -12.9 -17.9 -13.5 95 -0.2 SSE 9 11 5 6 1012.6 1011.4 0.0
29/05:07am -22.5 -27.9 -23.1 95 -0.2 SSE 9 11 5 6 1012.6 1011.4 0.0
29/05:05am -48.1 -54.2 -48.5 96 0.0 SSE 11 11 6 6 1012.6 1011.4 0.0
29/05:04am -33.5 -39.5 -34.0 95 -0.1 SSE 11 11 6 6 1012.6 1011.4 0.0
29/05:01am -18.9 -24.2 -19.5 95 -0.2 S 9 11 5 6 1012.5 1011.3 0.0
29/05:00am -40.5 -46.2 -41.0 95 -0.1 S 9 11 5 6 1012.5 1011.3 0.0
29/04:57am -38.5 -44.1 -39.0 95 -0.1 SSW 9 11 5 6 1012.5 1011.3 0.0
29/04:54am -49.3 -55.0 -49.7 96 0.0 SW 9 13 5 7 1012.5 1011.3 0.0
29/04:52am -30.9 -36.5 -31.4 95 -0.1 SW 9 13 5 7 1012.5 1011.3 0.0
29/04:51am -18.9 -24.2 -19.5 95 -0.2 SW 9 13 5 7 1012.4 1011.2 0.0
29/04:50am -39.7 -45.3 -40.2 95 -0.1 SW 9 13 5 7 1012.4 1011.2 0.0
29/04:49am -27.2 -32.7 -27.8 95 -0.2 SW 9 13 5 7 1012.3 1011.1 0.0
29/04:48am -39.8 -45.4 -40.3 95 -0.1 SW 9 13 5 7 1012.3 1011.1 0.0
29/04:47am -28.1 -33.6 -28.6 95 -0.2 SW 9 13 5 7 1012.2 1011.0 0.0
29/04:45am -17.5 -22.3 -18.1 95 -0.2 SW 7 13 4 7 1012.2 1011.0 0.0
29/04:44am -26.7 -31.8 -27.3 95 -0.2 SW 7 13 4 7 1012.2 1011.0 0.0
29/04:41am -19.3 -24.2 -19.9 95 -0.2 SW 7 11 4 6 1012.2 1011.0 0.0
29/04:39am -10.4 -14.9 -11.0 95 -0.2 SW 7 13 4 7 1012.2 1011.0 0.0
29/04:37am -20.1 -25.4 -20.6 96 -0.2 SW 9 13 5 7 1012.2 1011.0 0.0
29/04:36am -42.9 -48.6 -43.3 96 -0.1 SW 9 13 5 7 1012.1 1010.9 0.0
29/04:35am -34.7 -40.3 -35.1 96 -0.1 SW 9 13 5 7 1012.1 1010.9 0.0
29/04:33am -40.4 -46.1 -40.8 96 -0.1 SW 9 13 5 7 1012.0 1010.8 0.0
29/04:32am -28.6 -34.5 -29.0 96 -0.2 SW 11 13 6 7 1012.0 1010.8 0.0
29/04:30am -14.8 -20.3 -15.3 96 -0.2 SW 11 13 6 7 1011.9 1010.7 0.0
29/04:29am -34.6 -40.6 -35.0 96 -0.1 SW 11 13 6 7 1011.9 1010.7 0.0
29/04:28am -15.2 -20.7 -15.7 96 -0.2 SW 11 15 6 8 1011.9 1010.7 0.0
29/04:27am -37.4 -43.4 -37.8 96 -0.1 SW 11 15 6 8 1011.9 1010.7 0.0
29/04:26am -25.5 -31.3 -25.9 96 -0.2 SW 11 15 6 8 1011.9 1010.7 0.0
29/04:25am -5.8 -10.6 -6.3 96 -0.1 SW 11 15 6 8 1011.9 1010.7 0.0
29/04:23am -16.0 -21.9 -16.5 96 -0.2 WSW 13 15 7 8 1011.9 1010.7 0.0
29/04:22am -28.5 -34.8 -28.9 96 -0.2 WSW 13 15 7 8 1011.9 1010.7 0.0
29/04:21am -16.2 -22.1 -16.7 96 -0.2 WSW 13 15 7 8 1011.8 1010.6 0.0
29/04:20am -36.0 -42.4 -36.4 96 -0.1 W 13 15 7 8 1011.8 1010.6 0.0
29/04:19am -11.3 -17.0 -11.8 96 -0.2 W 13 15 7 8 1011.8 1010.6 0.0
29/04:18am -1.4 -6.1 -2.0 96 0.1 W 13 15 7 8 1011.8 1010.6 0.0
29/04:17am -26.8 -33.1 -27.2 96 -0.2 W 13 15 7 8 1011.8 1010.6 0.0
29/04:15am -1.6 -6.4 -2.2 96 0.1 W 13 15 7 8 1011.8 1010.6 0.0
29/04:14am -28.1 -34.0 -28.5 96 -0.2 W 11 15 6 8 1011.8 1010.6 0.0
29/04:13am -6.8 -11.7 -7.3 96 -0.1 W 11 15 6 8 1011.8 1010.6 0.0
29/04:10am -20.3 -26.0 -20.8 96 -0.2 WNW 11 13 6 7 1011.9 1010.7 0.0
29/04:09am -37.3 -42.9 -37.8 95 -0.1 NW 9 13 5 7 1011.9 1010.7 0.0
29/04:07am -20.0 -25.3 -20.6 95 -0.2 NW 9 11 5 6 1011.9 1010.7 0.0
29/04:06am -37.3 -42.9 -37.8 95 -0.1 NW 9 11 5 6 1012.0 1010.8 0.0
29/04:05am -10.6 -15.5 -11.2 95 -0.2 NNW 9 11 5 6 1012.0 1010.8 0.0
29/04:04am -32.9 -38.5 -33.4 95 -0.1 NNW 9 9 5 5 1012.0 1010.8 0.0
29/04:03am -3.3 -7.5 -4.0 95 0.1 NNW 9 9 5 5 1012.1 1010.9 0.0
29/04:00am -12.1 -16.7 -12.7 95 -0.2 NNW 7 9 4 5 1012.1 1010.9 0.0
29/03:59am -12.1 -16.7 -12.7 95 -0.2 NNW 7 9 4 5 1012.1 1010.9 0.0
29/03:58am 6.2 3.9 5.5 95 0.3 NNW 7 9 4 5 1012.1 1010.9 0.0
29/03:57am -10.2 -14.6 -10.8 95 -0.1 NNW 7 9 4 5 1012.1 1010.9 0.0
29/03:54am -35.0 -40.2 -35.5 95 -0.1 NNW 7 9 4 5 1012.2 1011.0 0.0
29/03:53am -5.0 -9.0 -5.7 95 0.0 NNW 7 11 4 6 1012.2 1011.0 0.0
29/03:52am -15.0 -19.7 -15.6 95 -0.2 NNW 7 11 4 6 1012.2 1011.0 0.0
29/03:50am -22.3 -27.7 -22.9 95 -0.2 NNW 9 13 5 7 1012.2 1011.0 0.0
29/03:49am -27.4 -32.9 -27.9 95 -0.2 NNW 9 13 5 7 1012.2 1011.0 0.0
29/03:47am -33.5 -39.5 -34.0 95 -0.1 NNW 11 15 6 8 1012.2 1011.0 0.0
29/03:44am -21.9 -27.7 -22.5 95 -0.2 NNW 11 15 6 8 1012.2 1011.0 0.0
29/03:41am -10.7 -16.3 -11.3 95 -0.2 NNW 13 15 7 8 1012.1 1010.9 0.0
29/03:40am -21.9 -28.0 -22.5 95 -0.2 NNW 13 15 7 8 1012.1 1010.9 0.0
29/03:37am -14.0 -19.8 -14.6 95 -0.2 NNW 13 15 7 8 1012.1 1010.9 0.0
29/03:36am -1.5 -6.3 -2.2 95 0.2 NNW 13 15 7 8 1012.0 1010.8 0.0
29/03:35am -15.4 -21.3 -16.1 94 -0.2 NNW 13 15 7 8 1012.0 1010.8 0.0
29/03:34am 6.3 3.2 5.4 94 0.4 NNW 11 15 6 8 1012.0 1010.8 0.0
29/03:33am -17.0 -22.6 -17.7 94 -0.2 N 11 15 6 8 1012.0 1010.8 0.0
29/03:30am 19.0 19.7 18.0 94 0.6 N 11 13 6 7 1012.1 1010.9 0.0
29/03:29am 16.9 16.8 15.9 94 0.6 N 11 13 6 7 1012.1 1010.9 0.0
29/03:25am 22.4 25.1 21.4 94 0.7 N 9 11 5 6 1012.2 1011.0 0.0
29/03:23am 29.4 36.4 28.3 94 0.8 NNW 9 11 5 6 1012.3 1011.1 0.0
29/03:21am 20.6 22.4 19.6 94 0.6 NNW 9 9 5 5 1012.3 1011.1 0.0
29/03:20am 29.0 35.7 27.9 94 0.8 NNW 9 9 5 5 1012.4 1011.2 0.0
29/03:00am 23.0 25.0 21.6 92 0.9 NNW 13 15 7 8 1012.0 1010.8 0.0
29/02:50am 17.5 17.0 16.0 91 0.9 N 13 15 7 8 1012.2 1011.0 0.0
29/02:43am 23.1 25.5 21.5 91 1.1 NNE 11 15 6 8 1012.5 1011.3 0.0
29/02:41am 15.9 15.2 14.3 90 0.9 N 11 15 6 8 1012.5 1011.3 0.0
29/02:30am 23.2 26.4 21.6 91 1.1 W 7 7 4 4 1012.2 1011.0 0.0
29/02:00am 20.3 22.1 18.8 91 0.9 W 7 11 4 6 1011.9 1010.7 0.0
29/01:30am 22.7 25.4 20.6 88 1.4 W 7 9 4 5 1012.0 1010.8 0.0
29/01:08am 23.2 26.5 20.7 86 1.6 W 4 7 2 4 1012.1 1010.9 0.0
29/01:05am 18.1 19.7 15.9 87 1.3 W 2 7 1 4 1012.1 1010.9 0.0
29/01:00am 25.6 31.0 23.3 87 1.6 CALM 0 4 0 2 1012.1 1010.9 0.0
29/12:30am 23.2 25.7 21.1 88 1.4 W 9 13 5 7 1012.2 1011.0 0.0
29/12:00am 23.4 27.7 21.1 87 1.5 CALM 0 0 0 0 1012.6 1011.4 0.0
 
Date/Time
WST
Temp
°C
App
Temp
°C
Dew
Point
Rel
Hum
%
Delta-T
°C
Wind Press
QNH
hPa
Press
MSL
hPa
Rain
since 9 am
mm
Dir
 
Spd
km/h
Gust
km/h
Spd
kts
Gust
kts
28/11:30pm 22.8 25.4 20.5 87 1.5 SW 7 9 4 5 1012.8 1011.6 0.0
28/11:00pm 24.5 27.9 22.7 90 1.2 S 9 11 5 6 1013.3 1012.1 0.0
28/10:30pm 25.1 29.2 23.3 90 1.2 SSE 7 13 4 7 1013.1 1011.9 0.0
28/10:00pm 25.0 28.3 23.2 90 1.2 SE 11 19 6 10 1013.3 1012.1 0.0
28/09:30pm 24.5 28.0 22.9 91 1.1 WNW 9 11 5 6 1012.7 1011.5 0.0
28/09:00pm 24.8 28.2 22.7 88 1.4 NW 9 11 5 6 1012.3 1011.1 0.0
28/08:30pm 25.5 29.1 23.0 86 1.7 NNW 9 13 5 7 1012.0 1010.8 0.0
28/08:00pm 25.8 28.4 22.7 83 2.1 NNW 13 17 7 9 1011.6 1010.4 0.0
28/07:30pm 26.5 28.4 22.8 80 2.5 NNW 17 20 9 11 1011.1 1009.9 0.0
28/07:00pm 29.0 31.1 24.1 75 3.4 NNW 20 24 11 13 1011.0 1009.8 0.0
28/06:30pm 29.4 30.7 22.6 67 4.7 NNW 20 26 11 14 1010.6 1009.5 0.0
28/06:24pm 29.5 30.7 22.5 66 4.8 N 20 26 11 14 1010.5 1009.4 0.0
28/06:00pm 30.8 31.0 22.1 59 5.9 N 24 28 13 15 1010.3 1009.2 0.0
28/05:30pm 31.9 31.6 21.1 52 7.3 N 24 32 13 17 1009.7 1008.5 0.0
28/05:00pm 33.3 32.7 20.4 46 8.7 NNW 24 32 13 17 1009.4 1008.2 0.0
28/04:30pm 34.5 33.3 20.1 43 9.7 NNW 26 33 14 18 1009.4 1008.2 0.0
28/04:00pm 34.9 33.3 19.3 40 10.4 NNW 26 35 14 19 1009.5 1008.3 0.0
28/03:30pm 35.7 33.5 18.7 36 11.2 N 28 33 15 18 1009.6 1008.4 0.0
28/03:00pm 35.9 34.2 19.8 39 10.8 NNW 28 35 15 19 1009.7 1008.5 0.0
28/02:30pm 36.3 34.6 19.7 37 11.1 N 28 37 15 20 1009.8 1008.6 0.0
28/02:00pm 36.5 34.4 19.0 35 11.6 N 28 37 15 20 1010.0 1008.8 0.0
28/01:30pm 37.0 35.1 18.5 33 12.2 N 26 35 14 19 1010.2 1009.1 0.0
28/01:00pm 36.4 34.7 18.9 35 11.6 N 26 35 14 19 1010.5 1009.4 0.0
28/12:30pm 35.7 34.9 20.0 39 10.6 N 24 35 13 19 1011.1 1009.9 0.0
28/12:00pm 35.7 33.3 17.4 33 11.9 NNE 26 35 14 19 1011.5 1010.3 0.0
28/11:30am 35.2 32.8 17.4 34 11.5 N 26 37 14 20 1011.9 1010.7 0.0
28/11:00am 33.7 32.4 19.0 42 9.7 NNE 24 32 13 17 1012.3 1011.1 0.0
28/10:30am 33.1 33.3 20.6 47 8.4 NE 20 28 11 15 1012.4 1011.2 0.0
28/10:00am 33.7 35.8 22.5 52 7.7 ENE 15 24 8 13 1012.4 1011.2 0.0
28/09:30am 31.3 34.7 23.4 63 5.5 NE 11 17 6 9 1012.7 1011.5 0.0
28/09:00am 29.9 33.2 23.8 70 4.2 NE 13 20 7 11 1012.6 1011.4 0.0
28/08:30am 28.8 32.4 23.7 74 3.5 N 11 20 6 11 1012.5 1011.3 0.0
28/08:00am 28.5 30.0 24.3 78 2.9 E 24 32 13 17 1012.8 1011.6 0.0
28/07:30am 25.9 27.6 23.4 86 1.7 ENE 20 26 11 14 1012.3 1011.1 0.0
28/07:00am 25.2 27.0 23.6 91 1.1 NNE 20 28 11 15 1011.6 1010.4 0.0
28/06:30am 24.5 27.0 23.8 96 0.5 NNE 17 20 9 11 1011.4 1010.2 0.0
28/06:00am 24.4 28.8 23.5 95 0.6 N 6 9 3 5 1010.8 1009.6 0.0
28/05:30am 24.0 28.5 23.0 94 0.7 NE 4 9 2 5 1010.4 1009.3 0.0
28/05:00am 24.3 28.0 23.3 94 0.7 N 9 13 5 7 1010.0 1008.8 0.0
28/04:30am 24.6 27.6 23.4 93 0.8 NNE 13 15 7 8 1009.8 1008.6 0.0
28/04:00am 25.1 27.8 23.5 91 1.1 N 15 20 8 11 1009.8 1008.6 0.0
28/03:57am 25.1 27.8 23.5 91 1.1 NNE 15 19 8 10 1009.8 1008.6 0.0
28/03:30am 25.4 28.1 23.5 89 1.3 N 15 19 8 10 1009.7 1008.5 0.0
28/03:12am 25.5 27.9 23.6 89 1.3 NNE 17 24 9 13 1009.7 1008.5 0.0
28/03:00am 25.5 27.4 23.4 88 1.4 NNE 19 24 10 13 1009.6 1008.4 0.0
28/02:30am 25.6 27.5 23.5 88 1.4 NE 19 24 10 13 1010.1 1009.0 0.0
28/02:27am 25.6 27.5 23.5 88 1.4 NE 19 24 10 13 1010.1 1009.0 0.0
28/02:00am 25.8 28.6 23.7 88 1.4 NE 15 20 8 11 1010.4 1009.3 0.0
28/01:30am 25.4 28.2 23.6 90 1.2 ENE 15 19 8 10 1011.1 1009.9 0.0
28/01:00am 24.8 29.0 23.4 92 1.0 ESE 7 13 4 7 1010.6 1009.5 0.0

Other Formats:

Comma delimited format used in spreadsheet applications
http://www.bom.gov.au/fwo/IDW60801/IDW60801.99311.axf

JavaScript Object Notation format (JSON) in row-major order
http://www.bom.gov.au/fwo/IDW60801/IDW60801.99311.json